Observation data for Hobbs on 06/24/2019      Previous  Date       Current Mesonet Observations  Soil Data  Daily Summary Page  Observations in Plain Language
KHO1 240500Z 34000KT 22/03 A2995 RMK A01 T02150026  RH  029%=      5-min Rain = 0
KHO1 240501Z 34000KT 22/02 A2995 RMK A01 T02150021  RH  028%=      5-min Rain = 0
KHO1 240502Z 34000KT 22/02 A2995 RMK A01 T02160022  RH  028%=      5-min Rain = 0
KHO1 240503Z 34001KT 22/02 A2995 RMK A01 T02160022  RH  028%=      5-min Rain = 0
KHO1 240504Z 34001KT 22/02 A2995 RMK A01 T02160022  RH  028%=      5-min Rain = 0
KHO1 240505Z 31001KT 22/03 A2995 RMK A01 T02160027  RH  029%=      5-min Rain = 0
KHO1 240506Z 30003KT 22/03 A2995 RMK A01 T02170029  RH  029%=      5-min Rain = 0
KHO1 240507Z 30003KT 22/03 A2995 RMK A01 T02170028  RH  029%=      5-min Rain = 0
KHO1 240508Z 30002KT 22/03 A2995 RMK A01 T02170030  RH  029%=      5-min Rain = 0
KHO1 240509Z 30001KT 22/03 A2995 RMK A01 T02170030  RH  029%=      5-min Rain = 0
KHO1 240510Z 30001KT 22/03 A2995 RMK A01 T02160028  RH  029%=      5-min Rain = 0
KHO1 240511Z 30001KT 22/03 A2995 RMK A01 T02160025  RH  028%=      5-min Rain = 0
KHO1 240512Z 30001KT 22/03 A2995 RMK A01 T02160025  RH  028%=      5-min Rain = 0
KHO1 240513Z 30000KT 22/02 A2995 RMK A01 T02160023  RH  028%=      5-min Rain = 0
KHO1 240514Z 00000KT 22/02 A2995 RMK A01 T02150024  RH  028%=      5-min Rain = 0
KHO1 240515Z 00000KT 22/02 A2995 RMK A01 T02150024  RH  028%=      5-min Rain = 0
KHO1 240516Z 30001KT 21/03 A2996 RMK A01 T02140025  RH  029%=      5-min Rain = 0
KHO1 240517Z 28003KT 21/03 A2996 RMK A01 T02140026  RH  029%=      5-min Rain = 0
KHO1 240518Z 28002KT 21/03 A2995 RMK A01 T02130027  RH  029%=      5-min Rain = 0
KHO1 240519Z 28002KT 21/03 A2995 RMK A01 T02130026  RH  029%=      5-min Rain = 0
KHO1 240520Z 28002KT 21/03 A2995 RMK A01 T02120025  RH  029%=      5-min Rain = 0
KHO1 240521Z 28002KT 21/02 A2995 RMK A01 T02110021  RH  028%=      5-min Rain = 0
KHO1 240522Z 28002KT 21/02 A2995 RMK A01 T02110022  RH  029%=      5-min Rain = 0
KHO1 240523Z 28002KT 21/02 A2995 RMK A01 T02100021  RH  029%=      5-min Rain = 0
KHO1 240524Z 28001KT 21/02 A2995 RMK A01 T02100022  RH  029%=      5-min Rain = 0
KHO1 240525Z 28002KT 21/02 A2995 RMK A01 T02090021  RH  029%=      5-min Rain = 0
KHO1 240526Z 28001KT 21/02 A2995 RMK A01 T02090019  RH  028%=      5-min Rain = 0
KHO1 240527Z 28000KT 21/02 A2995 RMK A01 T02080016  RH  028%=      5-min Rain = 0
KHO1 240528Z 00000KT 21/01 A2995 RMK A01 T02070013  RH  028%=      5-min Rain = 0
KHO1 240529Z 00000KT 21/01 A2995 RMK A01 T02060009  RH  027%=      5-min Rain = 0
KHO1 240530Z 00000KT 20/01 A2995 RMK A01 T02040007  RH  027%=      5-min Rain = 0
KHO1 240531Z 28000KT 20/01 A2996 RMK A01 T02020006  RH  027%=      5-min Rain = 0
KHO1 240532Z 28001KT 20/01 A2996 RMK A01 T02010006  RH  027%=      5-min Rain = 0
KHO1 240533Z 28002KT 20/01 A2996 RMK A01 T02000005  RH  027%=      5-min Rain = 0
KHO1 240534Z 28002KT 20/00 A2996 RMK A01 T02000004  RH  027%=      5-min Rain = 0
KHO1 240535Z 28001KT 20/01 A2996 RMK A01 T02010005  RH  027%=      5-min Rain = 0
KHO1 240536Z 28001KT 20/01 A2996 RMK A01 T02030007  RH  027%=      5-min Rain = 0
KHO1 240537Z 28001KT 21/01 A2996 RMK A01 T02050007  RH  027%=      5-min Rain = 0
KHO1 240538Z 28001KT 21/01 A2996 RMK A01 T02060009  RH  027%=      5-min Rain = 0
KHO1 240539Z 25002KT 21/01 A2996 RMK A01 T02050009  RH  027%=      5-min Rain = 0
KHO1 240540Z 25001KT 21/01 A2996 RMK A01 T02050006  RH  027%=      5-min Rain = 0
KHO1 240541Z 25001KT 21/00 A2996 RMK A01 T02060004  RH  026%=      5-min Rain = 0
KHO1 240542Z 25001KT 21/01 A2996 RMK A01 T02070005  RH  026%=      5-min Rain = 0
KHO1 240543Z 25001KT 21/01 A2996 RMK A01 T02080007  RH  026%=      5-min Rain = 0
KHO1 240544Z 25000KT 21/01 A2996 RMK A01 T02080008  RH  026%=      5-min Rain = 0
KHO1 240545Z 00000KT 21/01 A2996 RMK A01 T02080009  RH  026%=      5-min Rain = 0
KHO1 240546Z 00000KT 21/01 A2996 RMK A01 T02080009  RH  027%=      5-min Rain = 0
KHO1 240547Z 00002KT 21/01 A2996 RMK A01 T02080013  RH  027%=      5-min Rain = 0
KHO1 240548Z 36005KT 20/03 A2996 RMK A01 T02040026  RH  031%=      5-min Rain = 0
KHO1 240549Z 35005KT 20/03 A2996 RMK A01 T01990029  RH  032%=      5-min Rain = 0
KHO1 240550Z 01006KT 20/03 A2996 RMK A01 T01990027  RH  032%=      5-min Rain = 0
KHO1 240551Z 01005KT 20/02 A2996 RMK A01 T02010018  RH  030%=      5-min Rain = 0
KHO1 240552Z 00003KT 20/02 A2996 RMK A01 T02030019  RH  029%=      5-min Rain = 0
KHO1 240553Z 35004KT 20/02 A2996 RMK A01 T02040022  RH  030%=      5-min Rain = 0
KHO1 240554Z 36005KT 21/02 A2996 RMK A01 T02050019  RH  029%=      5-min Rain = 0
KHO1 240555Z 01005KT 21/02 A2996 RMK A01 T02070018  RH  028%=      5-min Rain = 0
KHO1 240556Z 00004KT 21/02 A2996 RMK A01 T02080018  RH  028%=      5-min Rain = 0
KHO1 240557Z 00004KT 21/02 A2996 RMK A01 T02090017  RH  028%=      5-min Rain = 0
KHO1 240558Z 36004KT 21/02 A2996 RMK A01 T02090018  RH  028%=      5-min Rain = 0
KHO1 240559Z 00004KT 21/02 A2996 RMK A01 T02090018  RH  028%=      5-min Rain = 0
KHO1 240600Z 00005KT 21/02 A2996 RMK A01 T02090017  RH  028%=      5-min Rain = 0
KHO1 240601Z 36002KT 21/02 A2996 RMK A01 T02090019  RH  028%=      5-min Rain = 0
KHO1 240602Z 36003KT 21/02 A2996 RMK A01 T02090021  RH  029%=      5-min Rain = 0
KHO1 240603Z 00004KT 21/02 A2996 RMK A01 T02090019  RH  028%=      5-min Rain = 0
KHO1 240604Z 01004KT 21/02 A2996 RMK A01 T02090016  RH  028%=      5-min Rain = 0
KHO1 240605Z 01004KT 21/01 A2996 RMK A01 T02100014  RH  027%=      5-min Rain = 0
KHO1 240606Z 01003KT 21/02 A2996 RMK A01 T02110016  RH  027%=      5-min Rain = 0
KHO1 240607Z 01002KT 21/02 A2996 RMK A01 T02120016  RH  027%=      5-min Rain = 0
KHO1 240608Z 01002KT 21/02 A2996 RMK A01 T02120016  RH  027%=      5-min Rain = 0
KHO1 240609Z 01002KT 21/01 A2996 RMK A01 T02110014  RH  027%=      5-min Rain = 0
KHO1 240610Z 01002KT 21/01 A2996 RMK A01 T02100014  RH  027%=      5-min Rain = 0
KHO1 240611Z 01002KT 21/02 A2996 RMK A01 T02090016  RH  028%=      5-min Rain = 0
KHO1 240612Z 01002KT 21/02 A2996 RMK A01 T02060019  RH  029%=      5-min Rain = 0
KHO1 240613Z 01002KT 20/02 A2996 RMK A01 T02040017  RH  029%=      5-min Rain = 0
KHO1 240614Z 35002KT 20/02 A2996 RMK A01 T02040017  RH  029%=      5-min Rain = 0
KHO1 240615Z 35002KT 20/02 A2996 RMK A01 T02040017  RH  029%=      5-min Rain = 0
KHO1 240616Z 36002KT 21/02 A2996 RMK A01 T02050016  RH  028%=      5-min Rain = 0
KHO1 240617Z 01003KT 21/02 A2996 RMK A01 T02080015  RH  028%=      5-min Rain = 0
KHO1 240618Z 02003KT 21/02 A2996 RMK A01 T02100016  RH  028%=      5-min Rain = 0
KHO1 240619Z 03003KT 21/02 A2996 RMK A01 T02110017  RH  028%=      5-min Rain = 0
KHO1 240620Z 03002KT 21/02 A2996 RMK A01 T02120016  RH  027%=      5-min Rain = 0
KHO1 240621Z 03002KT 21/01 A2996 RMK A01 T02110014  RH  027%=      5-min Rain = 0
KHO1 240622Z 03003KT 21/02 A2996 RMK A01 T02110015  RH  027%=      5-min Rain = 0
KHO1 240623Z 03003KT 21/01 A2996 RMK A01 T02110014  RH  027%=      5-min Rain = 0
KHO1 240624Z 03003KT 21/01 A2996 RMK A01 T02110014  RH  027%=      5-min Rain = 0
KHO1 240625Z 03003KT 21/01 A2996 RMK A01 T02110014  RH  027%=      5-min Rain = 0
KHO1 240626Z 03003KT 21/01 A2996 RMK A01 T02110014  RH  027%=      5-min Rain = 0
KHO1 240627Z 03003KT 21/01 A2996 RMK A01 T02120013  RH  027%=      5-min Rain = 0
KHO1 240628Z 02003KT 21/02 A2996 RMK A01 T02120016  RH  027%=      5-min Rain = 0
KHO1 240629Z 02003KT 21/02 A2996 RMK A01 T02100019  RH  028%=      5-min Rain = 0
KHO1 240630Z 01003KT 21/02 A2996 RMK A01 T02090020  RH  029%=      5-min Rain = 0
KHO1 240631Z 35002KT 21/02 A2996 RMK A01 T02080020  RH  029%=      5-min Rain = 0
KHO1 240632Z 30003KT 21/03 A2996 RMK A01 T02080030  RH  031%=      5-min Rain = 0
KHO1 240633Z 31002KT 21/03 A2996 RMK A01 T02060028  RH  031%=      5-min Rain = 0
KHO1 240634Z 33002KT 21/03 A2996 RMK A01 T02050025  RH  030%=      5-min Rain = 0
KHO1 240635Z 33001KT 21/03 A2996 RMK A01 T02050025  RH  030%=      5-min Rain = 0
KHO1 240636Z 32001KT 20/03 A2996 RMK A01 T02030027  RH  031%=      5-min Rain = 0
KHO1 240637Z 30001KT 20/03 A2996 RMK A01 T02000028  RH  032%=      5-min Rain = 0
KHO1 240638Z 30001KT 20/03 A2996 RMK A01 T01990030  RH  033%=      5-min Rain = 0
KHO1 240639Z 30000KT 20/03 A2996 RMK A01 T01980030  RH  033%=      5-min Rain = 0
KHO1 240640Z 00000KT 20/02 A2996 RMK A01 T01980024  RH  031%=      5-min Rain = 0
KHO1 240641Z 31000KT 20/02 A2996 RMK A01 T01990023  RH  031%=      5-min Rain = 0
KHO1 240642Z 00000KT 20/02 A2996 RMK A01 T01990024  RH  031%=      5-min Rain = 0
KHO1 240643Z 31000KT 20/02 A2996 RMK A01 T01990024  RH  031%=      5-min Rain = 0
KHO1 240644Z 31001KT 20/02 A2996 RMK A01 T01990022  RH  031%=      5-min Rain = 0
KHO1 240645Z 31000KT 20/02 A2996 RMK A01 T01960021  RH  031%=      5-min Rain = 0
KHO1 240646Z 31000KT 19/02 A2996 RMK A01 T01920021  RH  032%=      5-min Rain = 0
KHO1 240647Z 31000KT 19/02 A2996 RMK A01 T01900024  RH  033%=      5-min Rain = 0
KHO1 240648Z 00000KT 19/03 A2996 RMK A01 T01900027  RH  034%=      5-min Rain = 0
KHO1 240649Z 00000KT 19/03 A2996 RMK A01 T01900027  RH  034%=      5-min Rain = 0
KHO1 240650Z 00000KT 19/03 A2996 RMK A01 T01910027  RH  034%=      5-min Rain = 0
KHO1 240651Z 00000KT 19/03 A2996 RMK A01 T01920027  RH  033%=      5-min Rain = 0
KHO1 240652Z 00000KT 19/03 A2996 RMK A01 T01940027  RH  033%=      5-min Rain = 0
KHO1 240653Z 00000KT 19/03 A2996 RMK A01 T01940028  RH  033%=      5-min Rain = 0
KHO1 240654Z 00000KT 20/03 A2996 RMK A01 T01950029  RH  033%=      5-min Rain = 0
KHO1 240655Z 00000KT 20/03 A2996 RMK A01 T01950030  RH  034%=      5-min Rain = 0
KHO1 240656Z 31001KT 20/03 A2996 RMK A01 T01950029  RH  033%=      5-min Rain = 0
KHO1 240657Z 31000KT 19/03 A2996 RMK A01 T01940030  RH  034%=      5-min Rain = 0
KHO1 240658Z 31001KT 19/03 A2996 RMK A01 T01940034  RH  035%=      5-min Rain = 0
KHO1 240659Z 31001KT 19/04 A2996 RMK A01 T01940038  RH  036%=      5-min Rain = 0
KHO1 240700Z 35002KT 20/04 A2996 RMK A01 T01950039  RH  036%=      5-min Rain = 0
KHO1 240701Z 35002KT 20/04 A2996 RMK A01 T01960038  RH  035%=      5-min Rain = 0
KHO1 240702Z 01002KT 20/04 A2996 RMK A01 T01980037  RH  035%=      5-min Rain = 0
KHO1 240703Z 01003KT 20/04 A2996 RMK A01 T01990039  RH  035%=      5-min Rain = 0
KHO1 240704Z 01002KT 20/04 A2996 RMK A01 T02000037  RH  034%=      5-min Rain = 0
KHO1 240705Z 01003KT 20/04 A2996 RMK A01 T02000041  RH  035%=      5-min Rain = 0
KHO1 240706Z 01003KT 20/05 A2996 RMK A01 T02000045  RH  036%=      5-min Rain = 0
KHO1 240707Z 01003KT 20/04 A2996 RMK A01 T01980044  RH  036%=      5-min Rain = 0
KHO1 240708Z 01004KT 19/05 A2996 RMK A01 T01940054  RH  040%=      5-min Rain = 0
KHO1 240709Z 01004KT 19/06 A2996 RMK A01 T01910055  RH  041%=      5-min Rain = 0
KHO1 240710Z 01005KT 19/05 A2996 RMK A01 T01880054  RH  041%=      5-min Rain = 0
KHO1 240711Z 02005KT 19/05 A2996 RMK A01 T01870048  RH  040%=      5-min Rain = 0
KHO1 240712Z 01008KT 19/03 A2996 RMK A01 T01850033  RH  036%=      5-min Rain = 0
KHO1 240713Z 01007KT 19/03 A2996 RMK A01 T01850025  RH  035%=      5-min Rain = 0
KHO1 240714Z 02007KT 19/02 A2996 RMK A01 T01870021  RH  033%=      5-min Rain = 0
KHO1 240715Z 02006KT 19/02 A2996 RMK A01 T01900020  RH  032%=      5-min Rain = 0
KHO1 240716Z 02005KT 19/02 A2996 RMK A01 T01920019  RH  032%=      5-min Rain = 0
KHO1 240717Z 01004KT 19/02 A2996 RMK A01 T01930019  RH  031%=      5-min Rain = 0
KHO1 240718Z 02004KT 19/02 A2996 RMK A01 T01940018  RH  031%=      5-min Rain = 0
KHO1 240719Z 02004KT 19/02 A2996 RMK A01 T01940017  RH  031%=      5-min Rain = 0
KHO1 240720Z 02003KT 20/02 A2996 RMK A01 T01950017  RH  030%=      5-min Rain = 0
KHO1 240721Z 03003KT 20/02 A2996 RMK A01 T01950016  RH  030%=      5-min Rain = 0
KHO1 240722Z 03004KT 20/02 A2996 RMK A01 T01960017  RH  030%=      5-min Rain = 0
KHO1 240723Z 03004KT 20/02 A2996 RMK A01 T01950017  RH  030%=      5-min Rain = 0
KHO1 240724Z 02005KT 19/02 A2996 RMK A01 T01940017  RH  031%=      5-min Rain = 0
KHO1 240725Z 02004KT 19/02 A2996 RMK A01 T01930017  RH  031%=      5-min Rain = 0
KHO1 240726Z 01003KT 19/02 A2996 RMK A01 T01920016  RH  031%=      5-min Rain = 0
KHO1 240727Z 01003KT 19/02 A2996 RMK A01 T01910016  RH  031%=      5-min Rain = 0
KHO1 240728Z 01004KT 19/02 A2996 RMK A01 T01910018  RH  031%=      5-min Rain = 0
KHO1 240729Z 02005KT 19/02 A2996 RMK A01 T01930016  RH  031%=      5-min Rain = 0
KHO1 240730Z 02005KT 19/02 A2996 RMK A01 T01930015  RH  031%=      5-min Rain = 0
KHO1 240731Z 02006KT 19/02 A2996 RMK A01 T01920015  RH  031%=      5-min Rain = 0
KHO1 240732Z 03006KT 19/01 A2996 RMK A01 T01920014  RH  030%=      5-min Rain = 0
KHO1 240733Z 03006KT 19/01 A2996 RMK A01 T01920013  RH  030%=      5-min Rain = 0
KHO1 240734Z 03007KT 19/01 A2996 RMK A01 T01920013  RH  030%=      5-min Rain = 0
KHO1 240735Z 03006KT 19/01 A2996 RMK A01 T01930013  RH  030%=      5-min Rain = 0
KHO1 240736Z 04006KT 19/01 A2996 RMK A01 T01930013  RH  030%=      5-min Rain = 0
KHO1 240737Z 03006KT 19/01 A2996 RMK A01 T01930014  RH  030%=      5-min Rain = 0
KHO1 240738Z 03006KT 19/01 A2996 RMK A01 T01930014  RH  030%=      5-min Rain = 0
KHO1 240739Z 02006KT 19/01 A2996 RMK A01 T01920014  RH  030%=      5-min Rain = 0
KHO1 240740Z 36008KT 19/01 A2997 RMK A01 T01910014  RH  031%=      5-min Rain = 0
KHO1 240741Z 01007KT 19/01 A2996 RMK A01 T01910012  RH  030%=      5-min Rain = 0
KHO1 240742Z 02007KT 19/01 A2996 RMK A01 T01920012  RH  030%=      5-min Rain = 0
KHO1 240743Z 01008KT 19/01 A2997 RMK A01 T01930013  RH  030%=      5-min Rain = 0
KHO1 240744Z 01007KT 19/01 A2997 RMK A01 T01930012  RH  030%=      5-min Rain = 0
KHO1 240745Z 01006KT 19/01 A2996 RMK A01 T01930012  RH  030%=      5-min Rain = 0
KHO1 240746Z 01006KT 19/01 A2996 RMK A01 T01930010  RH  029%=      5-min Rain = 0
KHO1 240747Z 01007KT 20/01 A2996 RMK A01 T01950010  RH  029%=      5-min Rain = 0
KHO1 240748Z 01008KT 20/01 A2996 RMK A01 T01960010  RH  029%=      5-min Rain = 0
KHO1 240749Z 01008KT 20/01 A2996 RMK A01 T01970009  RH  029%=      5-min Rain = 0
KHO1 240750Z 02007KT 20/01 A2996 RMK A01 T01980010  RH  028%=      5-min Rain = 0
KHO1 240751Z 02007KT 20/01 A2996 RMK A01 T01980009  RH  028%=      5-min Rain = 0
KHO1 240752Z 02007KT 20/01 A2996 RMK A01 T01990008  RH  028%=      5-min Rain = 0
KHO1 240753Z 02007KT 20/01 A2996 RMK A01 T01990008  RH  028%=      5-min Rain = 0
KHO1 240754Z 02007KT 20/01 A2996 RMK A01 T02000009  RH  028%=      5-min Rain = 0
KHO1 240755Z 02007KT 20/01 A2996 RMK A01 T01990010  RH  028%=      5-min Rain = 0
KHO1 240756Z 02007KT 20/01 A2996 RMK A01 T01980009  RH  028%=      5-min Rain = 0
KHO1 240757Z 01006KT 20/01 A2996 RMK A01 T01980009  RH  028%=      5-min Rain = 0
KHO1 240758Z 00005KT 20/01 A2996 RMK A01 T01970008  RH  028%=      5-min Rain = 0
KHO1 240759Z 34006KT 20/01 A2996 RMK A01 T01970010  RH  029%=      5-min Rain = 0
KHO1 240800Z 34007KT 20/01 A2996 RMK A01 T01950010  RH  029%=      5-min Rain = 0
KHO1 240801Z 34006KT 19/01 A2996 RMK A01 T01930009  RH  029%=      5-min Rain = 0
KHO1 240802Z 35006KT 19/01 A2996 RMK A01 T01910009  RH  029%=      5-min Rain = 0
KHO1 240803Z 00006KT 19/01 A2996 RMK A01 T01910006  RH  029%=      5-min Rain = 0
KHO1 240804Z 00006KT 19/01 A2996 RMK A01 T01920006  RH  029%=      5-min Rain = 0
KHO1 240805Z 36005KT 19/01 A2996 RMK A01 T01930006  RH  029%=      5-min Rain = 0
KHO1 240806Z 36005KT 19/01 A2996 RMK A01 T01930007  RH  029%=      5-min Rain = 0
KHO1 240807Z 00005KT 19/01 A2996 RMK A01 T01920007  RH  029%=      5-min Rain = 0
KHO1 240808Z 00005KT 19/01 A2996 RMK A01 T01920007  RH  029%=      5-min Rain = 0
KHO1 240809Z 01005KT 19/01 A2996 RMK A01 T01910006  RH  029%=      5-min Rain = 0
KHO1 240810Z 01005KT 19/01 A2996 RMK A01 T01910005  RH  029%=      5-min Rain = 0
KHO1 240811Z 01005KT 19/00 A2996 RMK A01 T01910003  RH  028%=      5-min Rain = 0
KHO1 240812Z 01005KT 19/00 A2996 RMK A01 T01920003  RH  028%=      5-min Rain = 0
KHO1 240813Z 01006KT 19/00 A2996 RMK A01 T01920003  RH  028%=      5-min Rain = 0
KHO1 240814Z 00006KT 19/00 A2996 RMK A01 T01930002  RH  028%=      5-min Rain = 0
KHO1 240815Z 00004KT 19/00 A2996 RMK A01 T01930004  RH  028%=      5-min Rain = 0
KHO1 240816Z 00005KT 19/00 A2996 RMK A01 T01930004  RH  028%=      5-min Rain = 0
KHO1 240817Z 00005KT 19/00 A2996 RMK A01 T01910004  RH  028%=      5-min Rain = 0
KHO1 240818Z 00006KT 19/00 A2996 RMK A01 T01910003  RH  028%=      5-min Rain = 0
KHO1 240819Z 00006KT 19/00 A2996 RMK A01 T01910002  RH  028%=      5-min Rain = 0
KHO1 240820Z 00006KT 19/00 A2996 RMK A01 T01910002  RH  028%=      5-min Rain = 0
KHO1 240821Z 00006KT 19/00 A2996 RMK A01 T01910002  RH  028%=      5-min Rain = 0
KHO1 240822Z 00006KT 19/00 A2996 RMK A01 T01910002  RH  028%=      5-min Rain = 0
KHO1 240823Z 00005KT 19/00 A2996 RMK A01 T01900002  RH  028%=      5-min Rain = 0
KHO1 240824Z 36005KT 19/00 A2996 RMK A01 T01900003  RH  028%=      5-min Rain = 0
KHO1 240825Z 00004KT 19/00 A2996 RMK A01 T01890003  RH  029%=      5-min Rain = 0
KHO1 240826Z 36005KT 19/00 A2996 RMK A01 T01880003  RH  029%=      5-min Rain = 0
KHO1 240827Z 00005KT 19/00 A2996 RMK A01 T01880003  RH  029%=      5-min Rain = 0
KHO1 240828Z 00005KT 19/00 A2996 RMK A01 T01880003  RH  029%=      5-min Rain = 0
KHO1 240829Z 36005KT 19/00 A2996 RMK A01 T01880002  RH  029%=      5-min Rain = 0
KHO1 240830Z 00005KT 19/00 A2996 RMK A01 T01890003  RH  029%=      5-min Rain = 0
KHO1 240831Z 36004KT 19/00 A2995 RMK A01 T01890004  RH  029%=      5-min Rain = 0
KHO1 240832Z 35004KT 19/01 A2995 RMK A01 T01880005  RH  029%=      5-min Rain = 0
KHO1 240833Z 35004KT 19/01 A2995 RMK A01 T01870006  RH  030%=      5-min Rain = 0
KHO1 240834Z 36004KT 19/01 A2995 RMK A01 T01850007  RH  030%=      5-min Rain = 0
KHO1 240835Z 35004KT 18/01 A2995 RMK A01 T01840007  RH  030%=      5-min Rain = 0
KHO1 240836Z 36004KT 18/01 A2995 RMK A01 T01840008  RH  031%=      5-min Rain = 0
KHO1 240837Z 36005KT 18/01 A2995 RMK A01 T01830008  RH  031%=      5-min Rain = 0
KHO1 240838Z 35005KT 18/01 A2995 RMK A01 T01830007  RH  031%=      5-min Rain = 0
KHO1 240839Z 35004KT 18/01 A2996 RMK A01 T01820007  RH  031%=      5-min Rain = 0
KHO1 240840Z 35005KT 18/01 A2996 RMK A01 T01820007  RH  031%=      5-min Rain = 0
KHO1 240841Z 35005KT 18/01 A2996 RMK A01 T01820007  RH  031%=      5-min Rain = 0
KHO1 240842Z 35006KT 18/01 A2996 RMK A01 T01820006  RH  031%=      5-min Rain = 0
KHO1 240843Z 35006KT 18/01 A2996 RMK A01 T01830006  RH  030%=      5-min Rain = 0
KHO1 240844Z 35006KT 18/01 A2996 RMK A01 T01830005  RH  030%=      5-min Rain = 0
KHO1 240845Z 34007KT 18/00 A2996 RMK A01 T01840003  RH  030%=      5-min Rain = 0
KHO1 240846Z 33006KT 19/00 A2996 RMK A01 T01850002  RH  029%=      5-min Rain = 0
KHO1 240847Z 34005KT 19/01 A2996 RMK A01 T01850005  RH  030%=      5-min Rain = 0
KHO1 240848Z 34005KT 18/01 A2996 RMK A01 T01840007  RH  030%=      5-min Rain = 0
KHO1 240849Z 33003KT 18/01 A2996 RMK A01 T01830008  RH  031%=      5-min Rain = 0
KHO1 240850Z 34004KT 18/01 A2996 RMK A01 T01820010  RH  031%=      5-min Rain = 0
KHO1 240851Z 34006KT 18/01 A2996 RMK A01 T01810012  RH  032%=      5-min Rain = 0
KHO1 240852Z 35005KT 18/01 A2996 RMK A01 T01790011  RH  032%=      5-min Rain = 0
KHO1 240853Z 34006KT 18/01 A2996 RMK A01 T01780009  RH  032%=      5-min Rain = 0
KHO1 240854Z 35005KT 18/01 A2996 RMK A01 T01780006  RH  031%=      5-min Rain = 0
KHO1 240855Z 34004KT 18/01 A2996 RMK A01 T01770005  RH  031%=      5-min Rain = 0
KHO1 240856Z 33005KT 18/01 A2996 RMK A01 T01770005  RH  031%=      5-min Rain = 0
KHO1 240857Z 32006KT 18/00 A2996 RMK A01 T01770004  RH  031%=      5-min Rain = 0
KHO1 240858Z 31006KT 18/01 A2996 RMK A01 T01770012  RH  033%=      5-min Rain = 0
KHO1 240859Z 32006KT 18/01 A2996 RMK A01 T01750013  RH  034%=      5-min Rain = 0
KHO1 240900Z 33006KT 17/01 A2996 RMK A01 T01730009  RH  033%=      5-min Rain = 0
KHO1 240901Z 34005KT 17/01 A2995 RMK A01 T01720008  RH  033%=      5-min Rain = 0
KHO1 240902Z 34005KT 17/01 A2996 RMK A01 T01720009  RH  033%=      5-min Rain = 0
KHO1 240903Z 34005KT 17/01 A2995 RMK A01 T01710009  RH  034%=      5-min Rain = 0
KHO1 240904Z 34005KT 17/01 A2995 RMK A01 T01700007  RH  033%=      5-min Rain = 0
KHO1 240905Z 35005KT 17/01 A2995 RMK A01 T01700005  RH  033%=      5-min Rain = 0
KHO1 240906Z 35005KT 17/00 A2995 RMK A01 T01700002  RH  032%=      5-min Rain = 0
KHO1 240907Z 35006KT 17/M00 A2995 RMK A01 T01711001  RH  031%=      5-min Rain = 0
KHO1 240908Z 35006KT 17/M00 A2995 RMK A01 T01721003  RH  031%=      5-min Rain = 0
KHO1 240909Z 35006KT 17/M00 A2996 RMK A01 T01731004  RH  030%=      5-min Rain = 0
KHO1 240910Z 35007KT 17/M00 A2995 RMK A01 T01741004  RH  030%=      5-min Rain = 0
KHO1 240911Z 35007KT 18/M01 A2996 RMK A01 T01751005  RH  029%=      5-min Rain = 0
KHO1 240912Z 35006KT 18/M01 A2996 RMK A01 T01761005  RH  029%=      5-min Rain = 0
KHO1 240913Z 35007KT 18/M01 A2996 RMK A01 T01771006  RH  029%=      5-min Rain = 0
KHO1 240914Z 34006KT 18/M01 A2996 RMK A01 T01771006  RH  029%=      5-min Rain = 0
KHO1 240915Z 33004KT 18/M01 A2996 RMK A01 T01771006  RH  029%=      5-min Rain = 0
KHO1 240916Z 33004KT 18/M01 A2996 RMK A01 T01771006  RH  029%=      5-min Rain = 0
KHO1 240917Z 34004KT 18/M01 A2996 RMK A01 T01761005  RH  029%=      5-min Rain = 0
KHO1 240918Z 34005KT 18/M00 A2996 RMK A01 T01751004  RH  030%=      5-min Rain = 0
KHO1 240919Z 34005KT 17/M00 A2996 RMK A01 T01741003  RH  030%=      5-min Rain = 0
KHO1 240920Z 33004KT 17/M00 A2996 RMK A01 T01731002  RH  031%=      5-min Rain = 0
KHO1 240921Z 33006KT 17/M00 A2996 RMK A01 T01721003  RH  031%=      5-min Rain = 0
KHO1 240922Z 33006KT 17/M00 A2996 RMK A01 T01711003  RH  031%=      5-min Rain = 0
KHO1 240923Z 34006KT 17/M00 A2996 RMK A01 T01711003  RH  031%=      5-min Rain = 0
KHO1 240924Z 34005KT 17/M00 A2996 RMK A01 T01701003  RH  031%=      5-min Rain = 0
KHO1 240925Z 34005KT 17/M00 A2996 RMK A01 T01701003  RH  031%=      5-min Rain = 0
KHO1 240926Z 34006KT 17/M00 A2996 RMK A01 T01691003  RH  031%=      5-min Rain = 0
KHO1 240927Z 35007KT 17/M01 A2996 RMK A01 T01691006  RH  030%=      5-min Rain = 0
KHO1 240928Z 35007KT 17/M01 A2997 RMK A01 T01691009  RH  030%=      5-min Rain = 0
KHO1 240929Z 36006KT 17/M01 A2997 RMK A01 T01701010  RH  029%=      5-min Rain = 0
KHO1 240930Z 00005KT 17/M01 A2997 RMK A01 T01711008  RH  030%=      5-min Rain = 0
KHO1 240931Z 00006KT 17/M01 A2997 RMK A01 T01701007  RH  030%=      5-min Rain = 0
KHO1 240932Z 01004KT 17/M01 A2997 RMK A01 T01691008  RH  030%=      5-min Rain = 0
KHO1 240933Z 00005KT 17/M01 A2997 RMK A01 T01681007  RH  030%=      5-min Rain = 0
KHO1 240934Z 35005KT 17/M01 A2997 RMK A01 T01681007  RH  030%=      5-min Rain = 0
KHO1 240935Z 35005KT 17/M01 A2997 RMK A01 T01681008  RH  030%=      5-min Rain = 0
KHO1 240936Z 35005KT 17/M01 A2997 RMK A01 T01681008  RH  030%=      5-min Rain = 0
KHO1 240937Z 35006KT 17/M01 A2997 RMK A01 T01681009  RH  030%=      5-min Rain = 0
KHO1 240938Z 35007KT 17/M01 A2997 RMK A01 T01681011  RH  030%=      5-min Rain = 0
KHO1 240939Z 01006KT 17/M01 A2997 RMK A01 T01691011  RH  029%=      5-min Rain = 0
KHO1 240940Z 01006KT 17/M01 A2998 RMK A01 T01691010  RH  030%=      5-min Rain = 0
KHO1 240941Z 35006KT 17/M01 A2998 RMK A01 T01681010  RH  030%=      5-min Rain = 0
KHO1 240942Z 35006KT 17/M01 A2998 RMK A01 T01681010  RH  030%=      5-min Rain = 0
KHO1 240943Z 35005KT 17/M01 A2998 RMK A01 T01681010  RH  030%=      5-min Rain = 0
KHO1 240944Z 00004KT 17/M01 A2998 RMK A01 T01671009  RH  030%=      5-min Rain = 0
KHO1 240945Z 01003KT 17/M01 A2998 RMK A01 T01661009  RH  030%=      5-min Rain = 0
KHO1 240946Z 01003KT 17/M01 A2998 RMK A01 T01661009  RH  030%=      5-min Rain = 0
KHO1 240947Z 02003KT 17/M01 A2998 RMK A01 T01651009  RH  031%=      5-min Rain = 0
KHO1 240948Z 03003KT 16/M01 A2998 RMK A01 T01641008  RH  031%=      5-min Rain = 0
KHO1 240949Z 05003KT 16/M01 A2998 RMK A01 T01641008  RH  031%=      5-min Rain = 0
KHO1 240950Z 05004KT 16/M01 A2999 RMK A01 T01631005  RH  032%=      5-min Rain = 0
KHO1 240951Z 05003KT 16/M00 A2999 RMK A01 T01621002  RH  033%=      5-min Rain = 0
KHO1 240952Z 05004KT 16/00 A2998 RMK A01 T016100-0  RH  033%=      5-min Rain = 0
KHO1 240953Z 05004KT 16/00 A2999 RMK A01 T01600002  RH  034%=      5-min Rain = 0
KHO1 240954Z 03004KT 16/00 A2998 RMK A01 T01590004  RH  035%=      5-min Rain = 0
KHO1 240955Z 03005KT 16/01 A2998 RMK A01 T01580006  RH  036%=      5-min Rain = 0
KHO1 240956Z 02006KT 16/01 A2998 RMK A01 T01560006  RH  036%=      5-min Rain = 0
KHO1 240957Z 01006KT 15/00 A2998 RMK A01 T01540004  RH  036%=      5-min Rain = 0
KHO1 240958Z 01007KT 15/00 A2998 RMK A01 T01520004  RH  036%=      5-min Rain = 0
KHO1 240959Z 01007KT 15/00 A2998 RMK A01 T01520002  RH  036%=      5-min Rain = 0
KHO1 241000Z 01007KT 15/00 A2998 RMK A01 T01530002  RH  036%=      5-min Rain = 0
KHO1 241001Z 00007KT 15/00 A2998 RMK A01 T015400-0  RH  035%=      5-min Rain = 0
KHO1 241002Z 00008KT 16/M00 A2998 RMK A01 T01561004  RH  034%=      5-min Rain = 0
KHO1 241003Z 00007KT 16/M00 A2998 RMK A01 T01581004  RH  033%=      5-min Rain = 0
KHO1 241004Z 00007KT 16/M00 A2998 RMK A01 T01591004  RH  033%=      5-min Rain = 0
KHO1 241005Z 00007KT 16/M01 A2998 RMK A01 T01591005  RH  033%=      5-min Rain = 0
KHO1 241006Z 01006KT 16/M01 A2998 RMK A01 T01581005  RH  033%=      5-min Rain = 0
KHO1 241007Z 01007KT 16/M01 A2999 RMK A01 T01571005  RH  033%=      5-min Rain = 0
KHO1 241008Z 01007KT 16/M00 A2998 RMK A01 T01571004  RH  033%=      5-min Rain = 0
KHO1 241009Z 00007KT 16/M01 A2998 RMK A01 T01561006  RH  033%=      5-min Rain = 0
KHO1 241010Z 00006KT 16/M01 A2998 RMK A01 T01561006  RH  033%=      5-min Rain = 0
KHO1 241011Z 00006KT 16/M01 A2998 RMK A01 T01571006  RH  033%=      5-min Rain = 0
KHO1 241012Z 36006KT 16/M01 A2998 RMK A01 T01571007  RH  032%=      5-min Rain = 0
KHO1 241013Z 35007KT 16/M01 A2998 RMK A01 T01581007  RH  032%=      5-min Rain = 0
KHO1 241014Z 35008KT 16/M01 A2998 RMK A01 T01581007  RH  032%=      5-min Rain = 0
KHO1 241015Z 35008KT 16/M01 A2998 RMK A01 T01581007  RH  032%=      5-min Rain = 0
KHO1 241016Z 35009KT 16/M01 A2998 RMK A01 T01591008  RH  032%=      5-min Rain = 0
KHO1 241017Z 35008KT 16/M01 A2998 RMK A01 T01591008  RH  032%=      5-min Rain = 0
KHO1 241018Z 36009KT 16/M01 A2998 RMK A01 T01601008  RH  032%=      5-min Rain = 0
KHO1 241019Z 36009KT 16/M01 A2998 RMK A01 T01611008  RH  032%=      5-min Rain = 0
KHO1 241020Z 35009KT 16/M01 A2998 RMK A01 T01611008  RH  032%=      5-min Rain = 0
KHO1 241021Z 35009KT 16/M01 A2998 RMK A01 T01601008  RH  032%=      5-min Rain = 0
KHO1 241022Z 36008KT 16/M01 A2998 RMK A01 T01611010  RH  031%=      5-min Rain = 0
KHO1 241023Z 36008KT 16/M01 A2998 RMK A01 T01611009  RH  031%=      5-min Rain = 0
KHO1 241024Z 35008KT 16/M01 A2998 RMK A01 T01621009  RH  031%=      5-min Rain = 0
KHO1 241025Z 35007KT 16/M01 A2998 RMK A01 T01611009  RH  031%=      5-min Rain = 0
KHO1 241026Z 35007KT 16/M01 A2998 RMK A01 T01601009  RH  032%=      5-min Rain = 0
KHO1 241027Z 35007KT 16/M01 A2998 RMK A01 T01591009  RH  032%=      5-min Rain = 0
KHO1 241028Z 36007KT 16/M01 A2998 RMK A01 T01581008  RH  032%=      5-min Rain = 0
KHO1 241029Z 35007KT 16/M01 A2998 RMK A01 T01581009  RH  032%=      5-min Rain = 0
KHO1 241030Z 35007KT 16/M01 A2998 RMK A01 T01571009  RH  032%=      5-min Rain = 0
KHO1 241031Z 35008KT 16/M01 A2998 RMK A01 T01571010  RH  032%=      5-min Rain = 0
KHO1 241032Z 35007KT 16/M01 A2998 RMK A01 T01571010  RH  032%=      5-min Rain = 0
KHO1 241033Z 35007KT 16/M01 A2998 RMK A01 T01571011  RH  032%=      5-min Rain = 0
KHO1 241034Z 35007KT 16/M01 A2998 RMK A01 T01571012  RH  031%=      5-min Rain = 0
KHO1 241035Z 00006KT 16/M01 A2998 RMK A01 T01571013  RH  031%=      5-min Rain = 0
KHO1 241036Z 00007KT 16/M01 A2998 RMK A01 T01581013  RH  031%=      5-min Rain = 0
KHO1 241037Z 01007KT 16/M01 A2999 RMK A01 T01581014  RH  031%=      5-min Rain = 0
KHO1 241038Z 01008KT 16/M02 A2998 RMK A01 T01581015  RH  030%=      5-min Rain = 0
KHO1 241039Z 00007KT 16/M02 A2998 RMK A01 T01591015  RH  030%=      5-min Rain = 0
KHO1 241040Z 36006KT 16/M02 A2998 RMK A01 T01601015  RH  030%=      5-min Rain = 0
KHO1 241041Z 35006KT 16/M02 A2998 RMK A01 T01601015  RH  030%=      5-min Rain = 0
KHO1 241042Z 35006KT 16/M02 A2998 RMK A01 T01601015  RH  030%=      5-min Rain = 0
KHO1 241043Z 35008KT 16/M02 A2998 RMK A01 T01591016  RH  030%=      5-min Rain = 0
KHO1 241044Z 35008KT 16/M02 A2998 RMK A01 T01591017  RH  030%=      5-min Rain = 0
KHO1 241045Z 36008KT 16/M02 A2998 RMK A01 T01591018  RH  030%=      5-min Rain = 0
KHO1 241046Z 00009KT 16/M02 A2998 RMK A01 T01591019  RH  030%=      5-min Rain = 0
KHO1 241047Z 01009KT 16/M02 A2998 RMK A01 T01591020  RH  029%=      5-min Rain = 0
KHO1 241048Z 00010KT 16/M02 A2998 RMK A01 T01591023  RH  029%=      5-min Rain = 0
KHO1 241049Z 01011KT 16/M02 A2998 RMK A01 T01601024  RH  028%=      5-min Rain = 0
KHO1 241050Z 01011KT 16/M03 A2998 RMK A01 T01611026  RH  028%=      5-min Rain = 0
KHO1 241051Z 01009KT 16/M03 A2998 RMK A01 T01611026  RH  028%=      5-min Rain = 0
KHO1 241052Z 01010KT 16/M03 A2998 RMK A01 T01611027  RH  027%=      5-min Rain = 0
KHO1 241053Z 01009KT 16/M03 A2999 RMK A01 T01621027  RH  027%=      5-min Rain = 0
KHO1 241054Z 01009KT 16/M03 A2999 RMK A01 T01621026  RH  028%=      5-min Rain = 0
KHO1 241055Z 02008KT 16/M03 A2999 RMK A01 T01611025  RH  028%=      5-min Rain = 0
KHO1 241056Z 01009KT 16/M02 A2999 RMK A01 T01601024  RH  028%=      5-min Rain = 0
KHO1 241057Z 01009KT 16/M02 A2999 RMK A01 T01591024  RH  028%=      5-min Rain = 0
KHO1 241058Z 01010KT 16/M02 A2998 RMK A01 T01591023  RH  029%=      5-min Rain = 0
KHO1 241059Z 01010KT 16/M02 A2998 RMK A01 T01581023  RH  029%=      5-min Rain = 0
KHO1 241100Z 01011KT 16/M02 A2998 RMK A01 T01581023  RH  029%=      5-min Rain = 0
KHO1 241101Z 01011KT 16/M02 A2998 RMK A01 T01571022  RH  029%=      5-min Rain = 0
KHO1 241102Z 01011KT 16/M02 A2998 RMK A01 T01571022  RH  029%=      5-min Rain = 0
KHO1 241103Z 01011KT 16/M02 A2998 RMK A01 T01561022  RH  029%=      5-min Rain = 0
KHO1 241104Z 01010KT 16/M02 A2998 RMK A01 T01561021  RH  030%=      5-min Rain = 0
KHO1 241105Z 01008KT 16/M02 A2999 RMK A01 T01551019  RH  030%=      5-min Rain = 0
KHO1 241106Z 02009KT 15/M02 A2999 RMK A01 T01541018  RH  031%=      5-min Rain = 0
KHO1 241107Z 02007KT 15/M02 A2999 RMK A01 T01541017  RH  031%=      5-min Rain = 0
KHO1 241108Z 02007KT 15/M02 A2999 RMK A01 T01531017  RH  031%=      5-min Rain = 0
KHO1 241109Z 02008KT 15/M02 A2999 RMK A01 T01531015  RH  032%=      5-min Rain = 0
KHO1 241110Z 02009KT 15/M01 A2999 RMK A01 T01531013  RH  032%=      5-min Rain = 0
KHO1 241111Z 01009KT 15/M01 A2999 RMK A01 T01531013  RH  032%=      5-min Rain = 0
KHO1 241112Z 01008KT 15/M01 A2999 RMK A01 T01521013  RH  032%=      5-min Rain = 0
KHO1 241113Z 01009KT 15/M01 A2999 RMK A01 T01511012  RH  033%=      5-min Rain = 0
KHO1 241114Z 01008KT 15/M01 A2999 RMK A01 T01511011  RH  033%=      5-min Rain = 0
KHO1 241115Z 01008KT 15/M01 A2999 RMK A01 T01501011  RH  033%=      5-min Rain = 0
KHO1 241116Z 02008KT 15/M01 A2999 RMK A01 T01491010  RH  033%=      5-min Rain = 0
KHO1 241117Z 02009KT 15/M01 A2999 RMK A01 T01491009  RH  034%=      5-min Rain = 0
KHO1 241118Z 02008KT 15/M01 A2999 RMK A01 T01491008  RH  034%=      5-min Rain = 0
KHO1 241119Z 02009KT 15/M01 A2999 RMK A01 T01481005  RH  035%=      5-min Rain = 0
KHO1 241120Z 03009KT 15/M00 A2999 RMK A01 T01481003  RH  035%=      5-min Rain = 0
KHO1 241121Z 03009KT 15/M00 A2999 RMK A01 T01491002  RH  036%=      5-min Rain = 0
KHO1 241122Z 03008KT 15/M00 A2999 RMK A01 T01481001  RH  036%=      5-min Rain = 0
KHO1 241123Z 03007KT 15/00 A30 RMK A01 T01470001  RH  037%=      5-min Rain = 0
KHO1 241124Z 03007KT 15/00 A30 RMK A01 T01460002  RH  037%=      5-min Rain = 0
KHO1 241125Z 03007KT 14/00 A2999 RMK A01 T01440004  RH  038%=      5-min Rain = 0
KHO1 241126Z 02007KT 14/01 A30 RMK A01 T01430006  RH  039%=      5-min Rain = 0
KHO1 241127Z 02009KT 14/01 A2999 RMK A01 T01430008  RH  040%=      5-min Rain = 0
KHO1 241128Z 02008KT 14/01 A30 RMK A01 T01430010  RH  040%=      5-min Rain = 0
KHO1 241129Z 02009KT 14/01 A30 RMK A01 T01430012  RH  041%=      5-min Rain = 0
KHO1 241130Z 02009KT 14/01 A30 RMK A01 T01440013  RH  041%=      5-min Rain = 0
KHO1 241131Z 02009KT 15/02 A30 RMK A01 T01450016  RH  042%=      5-min Rain = 0
KHO1 241132Z 02009KT 15/02 A2999 RMK A01 T01460017  RH  042%=      5-min Rain = 0
KHO1 241133Z 03009KT 15/02 A2999 RMK A01 T01460018  RH  042%=      5-min Rain = 0
KHO1 241134Z 02007KT 15/02 A2999 RMK A01 T01460019  RH  042%=      5-min Rain = 0
KHO1 241135Z 03008KT 15/02 A2999 RMK A01 T01460019  RH  042%=      5-min Rain = 0
KHO1 241136Z 03007KT 15/02 A2999 RMK A01 T01450021  RH  043%=      5-min Rain = 0
KHO1 241137Z 02007KT 15/02 A2999 RMK A01 T01450022  RH  043%=      5-min Rain = 0
KHO1 241138Z 02006KT 15/02 A2999 RMK A01 T01450023  RH  044%=      5-min Rain = 0
KHO1 241139Z 02006KT 14/02 A2999 RMK A01 T01440023  RH  044%=      5-min Rain = 0
KHO1 241140Z 01006KT 14/03 A30 RMK A01 T01440026  RH  045%=      5-min Rain = 0
KHO1 241141Z 01006KT 14/03 A30 RMK A01 T01440026  RH  045%=      5-min Rain = 0
KHO1 241142Z 01007KT 15/03 A30 RMK A01 T01450026  RH  045%=      5-min Rain = 0
KHO1 241143Z 01006KT 15/03 A30 RMK A01 T01450026  RH  045%=      5-min Rain = 0
KHO1 241144Z 02005KT 15/03 A30 RMK A01 T01450026  RH  045%=      5-min Rain = 0
KHO1 241145Z 02005KT 15/03 A30 RMK A01 T01450026  RH  045%=      5-min Rain = 0
KHO1 241146Z 02006KT 14/03 A30 RMK A01 T01440026  RH  045%=      5-min Rain = 0
KHO1 241147Z 02006KT 14/03 A30 RMK A01 T01440026  RH  045%=      5-min Rain = 0
KHO1 241148Z 01006KT 14/03 A30 RMK A01 T01440025  RH  045%=      5-min Rain = 0
KHO1 241149Z 01007KT 14/02 A30 RMK A01 T01430023  RH  044%=      5-min Rain = 0
KHO1 241150Z 01007KT 14/02 A3001 RMK A01 T01430023  RH  044%=      5-min Rain = 0
KHO1 241151Z 01008KT 14/02 A3001 RMK A01 T01430022  RH  044%=      5-min Rain = 0
KHO1 241152Z 01008KT 14/02 A3001 RMK A01 T01430022  RH  044%=      5-min Rain = 0
KHO1 241153Z 01009KT 14/02 A3001 RMK A01 T01430022  RH  044%=      5-min Rain = 0
KHO1 241154Z 02009KT 14/02 A3001 RMK A01 T01420022  RH  044%=      5-min Rain = 0
KHO1 241155Z 02010KT 14/02 A3001 RMK A01 T01420024  RH  045%=      5-min Rain = 0
KHO1 241156Z 02010KT 14/03 A3001 RMK A01 T01430028  RH  046%=      5-min Rain = 0
KHO1 241157Z 03009KT 14/03 A3001 RMK A01 T01430029  RH  046%=      5-min Rain = 0
KHO1 241158Z 03009KT 14/03 A30 RMK A01 T01440029  RH  046%=      5-min Rain = 0
KHO1 241159Z 03009KT 14/03 A30 RMK A01 T01440030  RH  046%=      5-min Rain = 0
KHO1 241200Z 03008KT 14/03 A30 RMK A01 T01440030  RH  046%=      5-min Rain = 0
KHO1 241201Z 03008KT 14/03 A30 RMK A01 T01430032  RH  047%=      5-min Rain = 0
KHO1 241202Z 03010KT 14/04 A30 RMK A01 T01430035  RH  048%=      5-min Rain = 0
KHO1 241203Z 03010KT 14/04 A3001 RMK A01 T01440036  RH  048%=      5-min Rain = 0
KHO1 241204Z 03009KT 14/04 A3001 RMK A01 T01440037  RH  049%=      5-min Rain = 0
KHO1 241205Z 03008KT 14/04 A3001 RMK A01 T01440039  RH  049%=      5-min Rain = 0
KHO1 241206Z 02009KT 14/04 A3001 RMK A01 T01430039  RH  049%=      5-min Rain = 0
KHO1 241207Z 02007KT 14/04 A3001 RMK A01 T01430038  RH  049%=      5-min Rain = 0
KHO1 241208Z 02008KT 14/04 A3001 RMK A01 T01420039  RH  050%=      5-min Rain = 0
KHO1 241209Z 02007KT 14/04 A3001 RMK A01 T01420040  RH  050%=      5-min Rain = 0
KHO1 241210Z 01007KT 14/04 A3001 RMK A01 T01410042  RH  051%=      5-min Rain = 0
KHO1 241211Z 01007KT 14/05 A3001 RMK A01 T01410047  RH  053%=      5-min Rain = 0
KHO1 241212Z 01008KT 14/05 A3001 RMK A01 T01430050  RH  054%=      5-min Rain = 0
KHO1 241213Z 35007KT 14/05 A3001 RMK A01 T01430047  RH  052%=      5-min Rain = 0
KHO1 241214Z 36008KT 14/04 A3001 RMK A01 T01430038  RH  049%=      5-min Rain = 0
KHO1 241215Z 35008KT 14/04 A3001 RMK A01 T01420038  RH  049%=      5-min Rain = 0
KHO1 241216Z 36007KT 14/04 A3001 RMK A01 T01420037  RH  049%=      5-min Rain = 0
KHO1 241217Z 36007KT 14/04 A3002 RMK A01 T01420038  RH  050%=      5-min Rain = 0
KHO1 241218Z 35007KT 14/04 A3002 RMK A01 T01420040  RH  050%=      5-min Rain = 0
KHO1 241219Z 00007KT 14/04 A3002 RMK A01 T01420042  RH  051%=      5-min Rain = 0
KHO1 241220Z 00007KT 14/05 A3002 RMK A01 T01430045  RH  052%=      5-min Rain = 0
KHO1 241221Z 01007KT 14/05 A3002 RMK A01 T01430047  RH  052%=      5-min Rain = 0
KHO1 241222Z 01008KT 14/05 A3002 RMK A01 T01440051  RH  054%=      5-min Rain = 0
KHO1 241223Z 01007KT 14/05 A3002 RMK A01 T01440054  RH  055%=      5-min Rain = 0
KHO1 241224Z 01007KT 15/06 A3002 RMK A01 T01450059  RH  056%=      5-min Rain = 0
KHO1 241225Z 03006KT 15/06 A3002 RMK A01 T01460059  RH  056%=      5-min Rain = 0
KHO1 241226Z 02006KT 15/06 A3003 RMK A01 T01460059  RH  056%=      5-min Rain = 0
KHO1 241227Z 04004KT 15/06 A3003 RMK A01 T01470059  RH  056%=      5-min Rain = 0
KHO1 241228Z 05004KT 15/06 A3003 RMK A01 T01470059  RH  055%=      5-min Rain = 0
KHO1 241229Z 04004KT 15/06 A3003 RMK A01 T01470058  RH  055%=      5-min Rain = 0
KHO1 241230Z 03005KT 15/06 A3003 RMK A01 T01470057  RH  055%=      5-min Rain = 0
KHO1 241231Z 01005KT 15/06 A3003 RMK A01 T01470057  RH  055%=      5-min Rain = 0
KHO1 241232Z 01005KT 15/06 A3002 RMK A01 T01460060  RH  056%=      5-min Rain = 0
KHO1 241233Z 01005KT 15/06 A3002 RMK A01 T01460062  RH  057%=      5-min Rain = 0
KHO1 241234Z 36003KT 15/06 A3003 RMK A01 T01470063  RH  057%=      5-min Rain = 0
KHO1 241235Z 02003KT 15/06 A3003 RMK A01 T01470064  RH  057%=      5-min Rain = 0
KHO1 241236Z 03002KT 15/07 A3003 RMK A01 T01480066  RH  058%=      5-min Rain = 0
KHO1 241237Z 04003KT 15/07 A3003 RMK A01 T01490066  RH  058%=      5-min Rain = 0
KHO1 241238Z 04005KT 15/07 A3003 RMK A01 T01490068  RH  058%=      5-min Rain = 0
KHO1 241239Z 03005KT 15/07 A3003 RMK A01 T01500070  RH  059%=      5-min Rain = 0
KHO1 241240Z 02006KT 15/07 A3003 RMK A01 T01500071  RH  059%=      5-min Rain = 0
KHO1 241241Z 01007KT 15/07 A3003 RMK A01 T01510074  RH  060%=      5-min Rain = 0
KHO1 241242Z 36008KT 15/08 A3003 RMK A01 T01520078  RH  061%=      5-min Rain = 0
KHO1 241243Z 00007KT 15/08 A3003 RMK A01 T01530081  RH  062%=      5-min Rain = 0
KHO1 241244Z 00006KT 15/08 A3003 RMK A01 T01540083  RH  062%=      5-min Rain = 0
KHO1 241245Z 01007KT 16/09 A3003 RMK A01 T01550085  RH  063%=      5-min Rain = 0
KHO1 241246Z 01006KT 16/09 A3003 RMK A01 T01560087  RH  064%=      5-min Rain = 0
KHO1 241247Z 02006KT 16/09 A3004 RMK A01 T01580090  RH  064%=      5-min Rain = 0
KHO1 241248Z 04006KT 16/09 A3004 RMK A01 T01590093  RH  065%=      5-min Rain = 0
KHO1 241249Z 04006KT 16/09 A3004 RMK A01 T01600094  RH  065%=      5-min Rain = 0
KHO1 241250Z 03007KT 16/10 A3004 RMK A01 T01610096  RH  065%=      5-min Rain = 0
KHO1 241251Z 02007KT 16/10 A3004 RMK A01 T01620097  RH  065%=      5-min Rain = 0
KHO1 241252Z 01006KT 16/10 A3003 RMK A01 T01620098  RH  066%=      5-min Rain = 0
KHO1 241253Z 01007KT 16/10 A3003 RMK A01 T01630098  RH  066%=      5-min Rain = 0
KHO1 241254Z 01006KT 16/10 A3003 RMK A01 T01630097  RH  065%=      5-min Rain = 0
KHO1 241255Z 02007KT 16/10 A3004 RMK A01 T01640099  RH  065%=      5-min Rain = 0
KHO1 241256Z 03007KT 17/10 A3004 RMK A01 T01650100  RH  065%=      5-min Rain = 0
KHO1 241257Z 02008KT 17/10 A3004 RMK A01 T01650101  RH  066%=      5-min Rain = 0
KHO1 241258Z 02008KT 17/10 A3004 RMK A01 T01660103  RH  066%=      5-min Rain = 0
KHO1 241259Z 02009KT 17/10 A3004 RMK A01 T01660103  RH  067%=      5-min Rain = 0
KHO1 241300Z 02008KT 17/10 A3003 RMK A01 T01660104  RH  067%=      5-min Rain = 0
KHO1 241301Z 02007KT 17/11 A3003 RMK A01 T01670105  RH  067%=      5-min Rain = 0
KHO1 241302Z 02007KT 17/11 A3004 RMK A01 T01670105  RH  067%=      5-min Rain = 0
KHO1 241303Z 03008KT 17/11 A3004 RMK A01 T01680105  RH  066%=      5-min Rain = 0
KHO1 241304Z 03007KT 17/11 A3004 RMK A01 T01690106  RH  066%=      5-min Rain = 0
KHO1 241305Z 04008KT 17/11 A3004 RMK A01 T01690107  RH  067%=      5-min Rain = 0
KHO1 241306Z 04008KT 17/11 A3004 RMK A01 T01700108  RH  067%=      5-min Rain = 0
KHO1 241307Z 03008KT 17/11 A3004 RMK A01 T01710109  RH  067%=      5-min Rain = 0
KHO1 241308Z 03009KT 17/11 A3004 RMK A01 T01720111  RH  067%=      5-min Rain = 0
KHO1 241309Z 03009KT 17/11 A3004 RMK A01 T01720111  RH  067%=      5-min Rain = 0
KHO1 241310Z 03008KT 17/11 A3004 RMK A01 T01730111  RH  067%=      5-min Rain = 0
KHO1 241311Z 03008KT 17/11 A3004 RMK A01 T01730111  RH  067%=      5-min Rain = 0
KHO1 241312Z 03007KT 17/11 A3004 RMK A01 T01740113  RH  067%=      5-min Rain = 0
KHO1 241313Z 04006KT 18/11 A3004 RMK A01 T01760113  RH  067%=      5-min Rain = 0
KHO1 241314Z 05007KT 18/12 A3004 RMK A01 T01770116  RH  067%=      5-min Rain = 0
KHO1 241315Z 04008KT 18/12 A3004 RMK A01 T01790121  RH  069%=      5-min Rain = 0
KHO1 241316Z 05009KT 18/13 A3004 RMK A01 T01810125  RH  070%=      5-min Rain = 0
KHO1 241317Z 04007KT 18/13 A3004 RMK A01 T01820127  RH  070%=      5-min Rain = 0
KHO1 241318Z 05006KT 18/13 A3004 RMK A01 T01830128  RH  071%=      5-min Rain = 0
KHO1 241319Z 05007KT 18/13 A3004 RMK A01 T01830130  RH  071%=      5-min Rain = 0
KHO1 241320Z 05008KT 18/13 A3004 RMK A01 T01840132  RH  071%=      5-min Rain = 0
KHO1 241321Z 05009KT 19/13 A3004 RMK A01 T01850134  RH  072%=      5-min Rain = 0
KHO1 241322Z 06007KT 19/14 A3004 RMK A01 T01850135  RH  072%=      5-min Rain = 0
KHO1 241323Z 06006KT 19/14 A3004 RMK A01 T01860136  RH  073%=      5-min Rain = 0
KHO1 241324Z 06006KT 19/14 A3004 RMK A01 T01870137  RH  073%=      5-min Rain = 0
KHO1 241325Z 06007KT 19/14 A3004 RMK A01 T01880138  RH  073%=      5-min Rain = 0
KHO1 241326Z 06007KT 19/14 A3004 RMK A01 T01890140  RH  073%=      5-min Rain = 0
KHO1 241327Z 06007KT 19/14 A3004 RMK A01 T01900141  RH  073%=      5-min Rain = 0
KHO1 241328Z 06006KT 19/14 A3004 RMK A01 T01900142  RH  073%=      5-min Rain = 0
KHO1 241329Z 05008KT 19/14 A3004 RMK A01 T01920143  RH  074%=      5-min Rain = 0
KHO1 241330Z 06007KT 19/14 A3004 RMK A01 T01920144  RH  074%=      5-min Rain = 0
KHO1 241331Z 06006KT 19/15 A3004 RMK A01 T01930145  RH  074%=      5-min Rain = 0
KHO1 241332Z 07007KT 19/15 A3004 RMK A01 T01940146  RH  074%=      5-min Rain = 0
KHO1 241333Z 07007KT 20/15 A3004 RMK A01 T01960147  RH  073%=      5-min Rain = 0
KHO1 241334Z 08008KT 20/15 A3005 RMK A01 T01970148  RH  073%=      5-min Rain = 0
KHO1 241335Z 08007KT 20/15 A3005 RMK A01 T01990149  RH  073%=      5-min Rain = 0
KHO1 241336Z 08008KT 20/15 A3005 RMK A01 T02010150  RH  073%=      5-min Rain = 0
KHO1 241337Z 06007KT 20/15 A3004 RMK A01 T02020151  RH  072%=      5-min Rain = 0
KHO1 241338Z 06009KT 20/15 A3004 RMK A01 T02020151  RH  073%=      5-min Rain = 0
KHO1 241339Z 06008KT 20/15 A3004 RMK A01 T02020152  RH  073%=      5-min Rain = 0
KHO1 241340Z 07007KT 20/15 A3004 RMK A01 T02030152  RH  072%=      5-min Rain = 0
KHO1 241341Z 07006KT 20/15 A3005 RMK A01 T02040152  RH  072%=      5-min Rain = 0
KHO1 241342Z 07007KT 21/15 A3005 RMK A01 T02050153  RH  072%=      5-min Rain = 0
KHO1 241343Z 07008KT 21/15 A3005 RMK A01 T02050152  RH  072%=      5-min Rain = 0
KHO1 241344Z 07007KT 21/15 A3005 RMK A01 T02060153  RH  072%=      5-min Rain = 0
KHO1 241345Z 07006KT 21/15 A3005 RMK A01 T02070153  RH  071%=      5-min Rain = 0
KHO1 241346Z 06007G12KT 21/15 A3005 RMK A01 T02080154  RH  071%=      5-min Rain = 0
KHO1 241347Z 06009KT 21/15 A3005 RMK A01 T02080153  RH  071%=      5-min Rain = 0
KHO1 241348Z 07008KT 21/15 A3005 RMK A01 T02080154  RH  071%=      5-min Rain = 0
KHO1 241349Z 07008KT 21/15 A3005 RMK A01 T02080154  RH  071%=      5-min Rain = 0
KHO1 241350Z 07008KT 21/15 A3005 RMK A01 T02090154  RH  071%=      5-min Rain = 0
KHO1 241351Z 08008KT 21/16 A3005 RMK A01 T02090155  RH  071%=      5-min Rain = 0
KHO1 241352Z 08009KT 21/16 A3005 RMK A01 T02100155  RH  071%=      5-min Rain = 0
KHO1 241353Z 08008KT 21/16 A3005 RMK A01 T02100155  RH  070%=      5-min Rain = 0
KHO1 241354Z 07006KT 21/16 A3005 RMK A01 T02110155  RH  071%=      5-min Rain = 0
KHO1 241355Z 06008G13KT 21/16 A3005 RMK A01 T02120155  RH  070%=      5-min Rain = 0
KHO1 241356Z 06008KT 21/16 A3005 RMK A01 T02120155  RH  070%=      5-min Rain = 0
KHO1 241357Z 06009KT 21/16 A3005 RMK A01 T02120155  RH  070%=      5-min Rain = 0
KHO1 241358Z 06009KT 21/16 A3005 RMK A01 T02110155  RH  070%=      5-min Rain = 0
KHO1 241359Z 06008KT 21/16 A3005 RMK A01 T02110156  RH  071%=      5-min Rain = 0
KHO1 241400Z 07008KT 21/16 A3005 RMK A01 T02110156  RH  070%=      5-min Rain = 0
KHO1 241401Z 07008KT 21/16 A3005 RMK A01 T02120156  RH  070%=      5-min Rain = 0
KHO1 241402Z 08007KT 21/16 A3005 RMK A01 T02130156  RH  070%=      5-min Rain = 0
KHO1 241403Z 07008KT 21/16 A3005 RMK A01 T02140156  RH  070%=      5-min Rain = 0
KHO1 241404Z 07008KT 22/16 A3005 RMK A01 T02160156  RH  069%=      5-min Rain = 0
KHO1 241405Z 07007KT 22/16 A3005 RMK A01 T02160156  RH  069%=      5-min Rain = 0
KHO1 241406Z 08007KT 22/16 A3005 RMK A01 T02160156  RH  069%=      5-min Rain = 0
KHO1 241407Z 07008G13KT 22/16 A3005 RMK A01 T02170157  RH  069%=      5-min Rain = 0
KHO1 241408Z 07010KT 22/16 A3005 RMK A01 T02170156  RH  068%=      5-min Rain = 0
KHO1 241409Z 07008KT 22/16 A3005 RMK A01 T02170156  RH  068%=      5-min Rain = 0
KHO1 241410Z 08008KT 22/16 A3005 RMK A01 T02170157  RH  069%=      5-min Rain = 0
KHO1 241411Z 09008KT 22/16 A3005 RMK A01 T02170157  RH  068%=      5-min Rain = 0
KHO1 241412Z 08009KT 22/16 A3005 RMK A01 T02180157  RH  068%=      5-min Rain = 0
KHO1 241413Z 08007KT 22/16 A3005 RMK A01 T02190157  RH  068%=      5-min Rain = 0
KHO1 241414Z 06007KT 22/16 A3005 RMK A01 T02200157  RH  067%=      5-min Rain = 0
KHO1 241415Z 07008KT 22/16 A3005 RMK A01 T02200157  RH  067%=      5-min Rain = 0
KHO1 241416Z 07009KT 22/16 A3005 RMK A01 T02200157  RH  067%=      5-min Rain = 0
KHO1 241417Z 07008KT 22/16 A3005 RMK A01 T02200157  RH  067%=      5-min Rain = 0
KHO1 241418Z 08008KT 22/16 A3005 RMK A01 T02200157  RH  067%=      5-min Rain = 0
KHO1 241419Z 09008KT 22/16 A3005 RMK A01 T02200157  RH  067%=      5-min Rain = 0
KHO1 241420Z 09007KT 22/16 A3005 RMK A01 T02210157  RH  067%=      5-min Rain = 0
KHO1 241421Z 07007KT 22/16 A3005 RMK A01 T02220158  RH  067%=      5-min Rain = 0
KHO1 241422Z 08007KT 22/16 A3005 RMK A01 T02230159  RH  067%=      5-min Rain = 0
KHO1 241423Z 06007KT 22/16 A3005 RMK A01 T02240158  RH  066%=      5-min Rain = 0
KHO1 241424Z 07005KT 23/16 A3005 RMK A01 T02250159  RH  066%=      5-min Rain = 0
KHO1 241425Z 07009KT 23/16 A3006 RMK A01 T02260159  RH  066%=      5-min Rain = 0
KHO1 241426Z 07007KT 23/16 A3006 RMK A01 T02260159  RH  066%=      5-min Rain = 0
KHO1 241427Z 07008KT 23/16 A3006 RMK A01 T02260158  RH  065%=      5-min Rain = 0
KHO1 241428Z 07007KT 23/16 A3005 RMK A01 T02250158  RH  066%=      5-min Rain = 0
KHO1 241429Z 07008KT 23/16 A3005 RMK A01 T02260158  RH  065%=      5-min Rain = 0
KHO1 241430Z 09008KT 23/16 A3005 RMK A01 T02260158  RH  065%=      5-min Rain = 0
KHO1 241431Z 09008KT 23/16 A3005 RMK A01 T02260158  RH  065%=      5-min Rain = 0
KHO1 241432Z 09009KT 23/16 A3006 RMK A01 T02270158  RH  065%=      5-min Rain = 0
KHO1 241433Z 09012G17KT 23/16 A3006 RMK A01 T02270157  RH  065%=      5-min Rain = 0
KHO1 241434Z 09010G15KT 23/16 A3006 RMK A01 T02270157  RH  064%=      5-min Rain = 0
KHO1 241435Z 09009KT 23/16 A3005 RMK A01 T02270156  RH  064%=      5-min Rain = 0
KHO1 241436Z 07008KT 23/16 A3005 RMK A01 T02270157  RH  064%=      5-min Rain = 0
KHO1 241437Z 10009KT 23/16 A3005 RMK A01 T02280158  RH  065%=      5-min Rain = 0
KHO1 241438Z 09010G15KT 23/16 A3005 RMK A01 T02280157  RH  064%=      5-min Rain = 0
KHO1 241439Z 07008KT 23/16 A3005 RMK A01 T02290158  RH  064%=      5-min Rain = 0
KHO1 241440Z 07007KT 23/16 A3005 RMK A01 T02300158  RH  064%=      5-min Rain = 0
KHO1 241441Z 07008KT 23/16 A3005 RMK A01 T02300157  RH  063%=      5-min Rain = 0
KHO1 241442Z 07009KT 23/16 A3005 RMK A01 T02300157  RH  063%=      5-min Rain = 0
KHO1 241443Z 07008KT 23/16 A3005 RMK A01 T02300157  RH  063%=      5-min Rain = 0
KHO1 241444Z 05010KT 23/16 A3005 RMK A01 T02300157  RH  064%=      5-min Rain = 0
KHO1 241445Z 07007KT 23/16 A3006 RMK A01 T02290158  RH  064%=      5-min Rain = 0
KHO1 241446Z 10008KT 23/16 A3006 RMK A01 T02290158  RH  064%=      5-min Rain = 0
KHO1 241447Z 09010KT 23/16 A3006 RMK A01 T02310157  RH  063%=      5-min Rain = 0
KHO1 241448Z 09007KT 23/16 A3006 RMK A01 T02330157  RH  062%=      5-min Rain = 0
KHO1 241449Z 07006G11KT 24/16 A3006 RMK A01 T02350158  RH  062%=      5-min Rain = 0
KHO1 241450Z 07008KT 24/16 A3006 RMK A01 T02360157  RH  061%=      5-min Rain = 0
KHO1 241451Z 06009KT 24/16 A3006 RMK A01 T02360157  RH  061%=      5-min Rain = 0
KHO1 241452Z 07009KT 23/16 A3006 RMK A01 T02340157  RH  062%=      5-min Rain = 0
KHO1 241453Z 07007KT 23/16 A3006 RMK A01 T02340157  RH  062%=      5-min Rain = 0
KHO1 241454Z 07007KT 24/16 A3006 RMK A01 T02350158  RH  062%=      5-min Rain = 0
KHO1 241455Z 07008KT 24/16 A3006 RMK A01 T02350157  RH  061%=      5-min Rain = 0
KHO1 241456Z 06010G15KT 24/16 A3006 RMK A01 T02350156  RH  061%=      5-min Rain = 0
KHO1 241457Z 08008KT 23/16 A3006 RMK A01 T02340157  RH  062%=      5-min Rain = 0
KHO1 241458Z 08008KT 24/16 A3006 RMK A01 T02360157  RH  061%=      5-min Rain = 0
KHO1 241459Z 06008KT 24/16 A3006 RMK A01 T02360156  RH  061%=      5-min Rain = 0
KHO1 241500Z 07007KT 24/16 A3006 RMK A01 T02370157  RH  061%=      5-min Rain = 0
KHO1 241501Z 07008KT 24/16 A3006 RMK A01 T02370157  RH  061%=      5-min Rain = 0
KHO1 241502Z 07008KT 24/16 A3006 RMK A01 T02370157  RH  061%=      5-min Rain = 0
KHO1 241503Z 08008KT 24/16 A3006 RMK A01 T02370157  RH  061%=      5-min Rain = 0
KHO1 241504Z 06006KT 24/16 A3006 RMK A01 T02390157  RH  060%=      5-min Rain = 0
KHO1 241505Z 07007KT 24/16 A3006 RMK A01 T02400158  RH  060%=      5-min Rain = 0
KHO1 241506Z 09008KT 24/16 A3006 RMK A01 T02410158  RH  060%=      5-min Rain = 0
KHO1 241507Z 08007KT 24/16 A3006 RMK A01 T02420157  RH  059%=      5-min Rain = 0
KHO1 241508Z 07008KT 24/16 A3006 RMK A01 T02420157  RH  059%=      5-min Rain = 0
KHO1 241509Z 08006KT 24/16 A3006 RMK A01 T02440158  RH  059%=      5-min Rain = 0
KHO1 241510Z 07008KT 25/16 A3006 RMK A01 T02450156  RH  058%=      5-min Rain = 0
KHO1 241511Z 07009KT 24/16 A3006 RMK A01 T02440156  RH  058%=      5-min Rain = 0
KHO1 241512Z 08008KT 24/16 A3006 RMK A01 T02430157  RH  059%=      5-min Rain = 0
KHO1 241513Z 09009KT 24/16 A3006 RMK A01 T02420157  RH  059%=      5-min Rain = 0
KHO1 241514Z 10011KT 24/16 A3006 RMK A01 T02420156  RH  059%=      5-min Rain = 0
KHO1 241515Z 10011KT 24/16 A3006 RMK A01 T02430157  RH  059%=      5-min Rain = 0
KHO1 241516Z 10011KT 25/16 A3006 RMK A01 T02450157  RH  058%=      5-min Rain = 0
KHO1 241517Z 10008KT 25/16 A3006 RMK A01 T02460157  RH  058%=      5-min Rain = 0
KHO1 241518Z 07007G12KT 25/16 A3006 RMK A01 T02460157  RH  058%=      5-min Rain = 0
KHO1 241519Z 08007KT 25/16 A3006 RMK A01 T02470158  RH  057%=      5-min Rain = 0
KHO1 241520Z 07009KT 25/16 A3006 RMK A01 T02480157  RH  057%=      5-min Rain = 0
KHO1 241521Z 07009KT 25/16 A3006 RMK A01 T02460157  RH  058%=      5-min Rain = 0
KHO1 241522Z 09007KT 25/16 A3006 RMK A01 T02450158  RH  058%=      5-min Rain = 0
KHO1 241523Z 08008KT 25/16 A3006 RMK A01 T02470158  RH  058%=      5-min Rain = 0
KHO1 241524Z 08008KT 25/16 A3006 RMK A01 T02470157  RH  057%=      5-min Rain = 0
KHO1 241525Z 09008G14KT 25/16 A3006 RMK A01 T02470158  RH  058%=      5-min Rain = 0
KHO1 241526Z 10010KT 25/16 A3006 RMK A01 T02470157  RH  057%=      5-min Rain = 0
KHO1 241527Z 08006KT 25/16 A3006 RMK A01 T02480158  RH  057%=      5-min Rain = 0
KHO1 241528Z 09008KT 25/16 A3006 RMK A01 T02500158  RH  057%=      5-min Rain = 0
KHO1 241529Z 09008KT 25/16 A3006 RMK A01 T02510158  RH  056%=      5-min Rain = 0
KHO1 241530Z 10011KT 25/16 A3006 RMK A01 T02520158  RH  056%=      5-min Rain = 0
KHO1 241531Z 08007KT 25/16 A3006 RMK A01 T02520157  RH  056%=      5-min Rain = 0
KHO1 241532Z 07006KT 25/16 A3006 RMK A01 T02520158  RH  056%=      5-min Rain = 0
KHO1 241533Z 08007KT 25/16 A3006 RMK A01 T02520158  RH  056%=      5-min Rain = 0
KHO1 241534Z 10009KT 25/16 A3006 RMK A01 T02530158  RH  056%=      5-min Rain = 0
KHO1 241535Z 09007KT 25/16 A3006 RMK A01 T02530157  RH  055%=      5-min Rain = 0
KHO1 241536Z 09007KT 25/16 A3006 RMK A01 T02540156  RH  055%=      5-min Rain = 0
KHO1 241537Z 08005KT 26/16 A3006 RMK A01 T02550157  RH  055%=      5-min Rain = 0
KHO1 241538Z 06007KT 26/16 A3005 RMK A01 T02560158  RH  055%=      5-min Rain = 0
KHO1 241539Z 08006KT 26/16 A3005 RMK A01 T02560159  RH  055%=      5-min Rain = 0
KHO1 241540Z 09009G14KT 26/16 A3005 RMK A01 T02560157  RH  054%=      5-min Rain = 0
KHO1 241541Z 09008KT 26/16 A3005 RMK A01 T02570156  RH  054%=      5-min Rain = 0
KHO1 241542Z 09008KT 26/16 A3005 RMK A01 T02580155  RH  053%=      5-min Rain = 0
KHO1 241543Z 07006KT 26/16 A3005 RMK A01 T02580156  RH  053%=      5-min Rain = 0
KHO1 241544Z 09008KT 26/16 A3005 RMK A01 T02580156  RH  053%=      5-min Rain = 0
KHO1 241545Z 09009KT 26/16 A3005 RMK A01 T02580156  RH  053%=      5-min Rain = 0
KHO1 241546Z 10008KT 26/16 A3005 RMK A01 T02570156  RH  054%=      5-min Rain = 0
KHO1 241547Z 08007KT 26/16 A3005 RMK A01 T02570157  RH  054%=      5-min Rain = 0
KHO1 241548Z 06009KT 26/15 A3005 RMK A01 T02580154  RH  052%=      5-min Rain = 0
KHO1 241549Z 05009KT 26/15 A3005 RMK A01 T02560154  RH  053%=      5-min Rain = 0
KHO1 241550Z 08006KT 26/16 A3005 RMK A01 T02550157  RH  055%=      5-min Rain = 0
KHO1 241551Z 06008KT 26/16 A3005 RMK A01 T02560158  RH  055%=      5-min Rain = 0
KHO1 241552Z 06008KT 26/16 A3005 RMK A01 T02560158  RH  055%=      5-min Rain = 0
KHO1 241553Z 09007KT 26/16 A3005 RMK A01 T02570157  RH  054%=      5-min Rain = 0
KHO1 241554Z 10009KT 26/16 A3005 RMK A01 T02590155  RH  052%=      5-min Rain = 0
KHO1 241555Z 07005KT 26/16 A3005 RMK A01 T02610155  RH  052%=      5-min Rain = 0
KHO1 241556Z 07006KT 26/16 A3005 RMK A01 T02620156  RH  052%=      5-min Rain = 0
KHO1 241557Z 08007KT 26/16 A3005 RMK A01 T02630156  RH  052%=      5-min Rain = 0
KHO1 241558Z 09007KT 26/16 A3005 RMK A01 T02620155  RH  052%=      5-min Rain = 0
KHO1 241559Z 10010KT 26/16 A3005 RMK A01 T02620155  RH  052%=      5-min Rain = 0
KHO1 241600Z 10010KT 26/16 A3005 RMK A01 T02630157  RH  052%=      5-min Rain = 0
KHO1 241601Z 07007KT 27/16 A3005 RMK A01 T02650157  RH  052%=      5-min Rain = 0
KHO1 241602Z 07006KT 27/16 A3005 RMK A01 T02650157  RH  051%=      5-min Rain = 0
KHO1 241603Z 07006KT 26/16 A3005 RMK A01 T02640156  RH  051%=      5-min Rain = 0
KHO1 241604Z 09007G12KT 27/16 A3005 RMK A01 T02650156  RH  051%=      5-min Rain = 0
KHO1 241605Z 09007G13KT 27/16 A3005 RMK A01 T02650156  RH  051%=      5-min Rain = 0
KHO1 241606Z 09008KT 27/16 A3005 RMK A01 T02660155  RH  050%=      5-min Rain = 0
KHO1 241607Z 09008G13KT 27/15 A3005 RMK A01 T02680153  RH  049%=      5-min Rain = 0
KHO1 241608Z 09008G14KT 27/15 A3005 RMK A01 T02690152  RH  049%=      5-min Rain = 0
KHO1 241609Z 09007KT 27/15 A3005 RMK A01 T02690153  RH  049%=      5-min Rain = 0
KHO1 241610Z 08007KT 27/15 A3005 RMK A01 T02690154  RH  049%=      5-min Rain = 0
KHO1 241611Z 08007KT 27/15 A3005 RMK A01 T02690154  RH  049%=      5-min Rain = 0
KHO1 241612Z 08007KT 27/15 A3005 RMK A01 T02690153  RH  049%=      5-min Rain = 0
KHO1 241613Z 08006G13KT 27/15 A3005 RMK A01 T02690151  RH  048%=      5-min Rain = 0
KHO1 241614Z 10011KT 27/15 A3005 RMK A01 T02690152  RH  049%=      5-min Rain = 0
KHO1 241615Z 10010KT 27/15 A3005 RMK A01 T02690151  RH  048%=      5-min Rain = 0
KHO1 241616Z 09009KT 27/15 A3005 RMK A01 T02690151  RH  049%=      5-min Rain = 0
KHO1 241617Z 10008KT 27/16 A3005 RMK A01 T02690155  RH  050%=      5-min Rain = 0
KHO1 241618Z 11007KT 27/15 A3005 RMK A01 T02700154  RH  049%=      5-min Rain = 0
KHO1 241619Z 11009KT 27/15 A3005 RMK A01 T02710150  RH  048%=      5-min Rain = 0
KHO1 241620Z 09008KT 27/15 A3005 RMK A01 T02700152  RH  048%=      5-min Rain = 0
KHO1 241621Z 09006KT 27/15 A3005 RMK A01 T02690153  RH  049%=      5-min Rain = 0
KHO1 241622Z 10007KT 27/16 A3005 RMK A01 T02680155  RH  050%=      5-min Rain = 0
KHO1 241623Z 06009KT 27/15 A3005 RMK A01 T02700154  RH  049%=      5-min Rain = 0
KHO1 241624Z 06010KT 27/15 A3005 RMK A01 T02690152  RH  049%=      5-min Rain = 0
KHO1 241625Z 08006KT 27/16 A3005 RMK A01 T02680155  RH  050%=      5-min Rain = 0
KHO1 241626Z 09005KT 27/16 A3005 RMK A01 T02690155  RH  050%=      5-min Rain = 0
KHO1 241627Z 10007KT 27/16 A3005 RMK A01 T02710156  RH  049%=      5-min Rain = 0
KHO1 241628Z 08006KT 27/16 A3005 RMK A01 T02740155  RH  048%=      5-min Rain = 0
KHO1 241629Z 06006KT 28/15 A3005 RMK A01 T02760153  RH  047%=      5-min Rain = 0
KHO1 241630Z 05010KT 28/15 A3005 RMK A01 T02750152  RH  047%=      5-min Rain = 0
KHO1 241631Z 05007KT 27/15 A3005 RMK A01 T02720154  RH  048%=      5-min Rain = 0
KHO1 241632Z 07007KT 27/15 A3005 RMK A01 T02720154  RH  049%=      5-min Rain = 0
KHO1 241633Z 08006KT 27/16 A3005 RMK A01 T02730155  RH  048%=      5-min Rain = 0
KHO1 241634Z 07008KT 27/15 A3005 RMK A01 T02740153  RH  047%=      5-min Rain = 0
KHO1 241635Z 06008KT 28/15 A3005 RMK A01 T02750152  RH  047%=      5-min Rain = 0
KHO1 241636Z 06006KT 28/15 A3005 RMK A01 T02750151  RH  047%=      5-min Rain = 0
KHO1 241637Z 05006KT 27/15 A3005 RMK A01 T02740150  RH  047%=      5-min Rain = 0
KHO1 241638Z 07005KT 27/15 A3005 RMK A01 T02740152  RH  047%=      5-min Rain = 0
KHO1 241639Z 08005KT 28/15 A3005 RMK A01 T02750149  RH  046%=      5-min Rain = 0
KHO1 241640Z 09005KT 28/15 A3005 RMK A01 T02770150  RH  046%=      5-min Rain = 0
KHO1 241641Z 10006KT 28/15 A3005 RMK A01 T02770146  RH  045%=      5-min Rain = 0
KHO1 241642Z 10005KT 28/15 A3005 RMK A01 T02770147  RH  045%=      5-min Rain = 0
KHO1 241643Z 07007KT 28/15 A3005 RMK A01 T02780148  RH  045%=      5-min Rain = 0
KHO1 241644Z 08005KT 28/15 A3005 RMK A01 T02790148  RH  045%=      5-min Rain = 0
KHO1 241645Z 07007KT 28/15 A3005 RMK A01 T02790148  RH  045%=      5-min Rain = 0
KHO1 241646Z 07006KT 28/15 A3005 RMK A01 T02780145  RH  044%=      5-min Rain = 0
KHO1 241647Z 05007KT 28/14 A3005 RMK A01 T02780144  RH  044%=      5-min Rain = 0
KHO1 241648Z 06006KT 28/15 A3005 RMK A01 T02770145  RH  045%=      5-min Rain = 0
KHO1 241649Z 06005KT 28/15 A3005 RMK A01 T02760146  RH  045%=      5-min Rain = 0
KHO1 241650Z 07007KT 28/15 A3005 RMK A01 T02760149  RH  046%=      5-min Rain = 0
KHO1 241651Z 08005KT 28/15 A3005 RMK A01 T02780147  RH  045%=      5-min Rain = 0
KHO1 241652Z 07005KT 28/15 A3005 RMK A01 T02800146  RH  044%=      5-min Rain = 0
KHO1 241653Z 06005KT 28/14 A3005 RMK A01 T02800144  RH  043%=      5-min Rain = 0
KHO1 241654Z 05006KT 28/14 A3005 RMK A01 T02810142  RH  043%=      5-min Rain = 0
KHO1 241655Z 05005KT 28/14 A3005 RMK A01 T02810142  RH  043%=      5-min Rain = 0
KHO1 241656Z 06004KT 28/14 A3005 RMK A01 T02810142  RH  043%=      5-min Rain = 0
KHO1 241657Z 08007KT 28/14 A3005 RMK A01 T02800144  RH  043%=      5-min Rain = 0
KHO1 241658Z 05007KT 28/14 A3005 RMK A01 T02810141  RH  042%=      5-min Rain = 0
KHO1 241659Z 05006KT 28/14 A3005 RMK A01 T02810142  RH  043%=      5-min Rain = 0
KHO1 241700Z 06004KT 28/14 A3005 RMK A01 T02800140  RH  042%=      5-min Rain = 0
KHO1 241701Z 06005KT 28/14 A3005 RMK A01 T02810143  RH  043%=      5-min Rain = 0
KHO1 241702Z 06005KT 28/15 A3005 RMK A01 T02820145  RH  043%=      5-min Rain = 0
KHO1 241703Z 09004G9KT 28/14 A3005 RMK A01 T02820143  RH  042%=      5-min Rain = 0
KHO1 241704Z 10009KT 28/14 A3005 RMK A01 T02810142  RH  042%=      5-min Rain = 0
KHO1 241705Z 08006KT 29/14 A3005 RMK A01 T02850141  RH  041%=      5-min Rain = 0
KHO1 241706Z 09004KT 29/14 A3005 RMK A01 T02870142  RH  041%=      5-min Rain = 0
KHO1 241707Z 09007KT 29/14 A3005 RMK A01 T02880141  RH  040%=      5-min Rain = 0
KHO1 241708Z 07007KT 29/14 A3005 RMK A01 T02890137  RH  040%=      5-min Rain = 0
KHO1 241709Z 10006KT 29/14 A3005 RMK A01 T02890137  RH  039%=      5-min Rain = 0
KHO1 241710Z 08006KT 29/14 A3005 RMK A01 T02910137  RH  039%=      5-min Rain = 0
KHO1 241711Z 06006KT 29/13 A3005 RMK A01 T02920133  RH  038%=      5-min Rain = 0
KHO1 241712Z 04003KT 29/13 A3005 RMK A01 T02920133  RH  038%=      5-min Rain = 0
KHO1 241713Z 06007KT 29/14 A3005 RMK A01 T02910139  RH  039%=      5-min Rain = 0
KHO1 241714Z 06005KT 29/14 A3005 RMK A01 T02920144  RH  040%=      5-min Rain = 0
KHO1 241715Z 07005KT 29/14 A3005 RMK A01 T02920143  RH  040%=      5-min Rain = 0
KHO1 241716Z 08005KT 29/14 A3005 RMK A01 T02910142  RH  040%=      5-min Rain = 0
KHO1 241717Z 04007KT 29/14 A3005 RMK A01 T02920139  RH  039%=      5-min Rain = 0
KHO1 241718Z 09006KT 29/14 A3005 RMK A01 T02930140  RH  039%=      5-min Rain = 0
KHO1 241719Z 06007KT 29/14 A3005 RMK A01 T02930138  RH  039%=      5-min Rain = 0
KHO1 241720Z 06006KT 29/14 A3005 RMK A01 T02920135  RH  038%=      5-min Rain = 0
KHO1 241721Z 08006KT 29/14 A3005 RMK A01 T02910137  RH  039%=      5-min Rain = 0
KHO1 241722Z 10007KT 29/13 A3005 RMK A01 T02930132  RH  037%=      5-min Rain = 0
KHO1 241723Z 10007KT 30/13 A3005 RMK A01 T02950129  RH  036%=      5-min Rain = 0
KHO1 241724Z 10008KT 30/12 A3005 RMK A01 T02950124  RH  035%=      5-min Rain = 0
KHO1 241725Z 09007KT 29/13 A3005 RMK A01 T02940126  RH  035%=      5-min Rain = 0
KHO1 241726Z 07007KT 30/13 A3005 RMK A01 T02950131  RH  037%=      5-min Rain = 0
KHO1 241727Z 08007KT 30/13 A3005 RMK A01 T02950131  RH  037%=      5-min Rain = 0
KHO1 241728Z 10008KT 30/13 A3005 RMK A01 T02950127  RH  036%=      5-min Rain = 0
KHO1 241729Z 10006KT 30/12 A3005 RMK A01 T02960124  RH  035%=      5-min Rain = 0
KHO1 241730Z 10006G11KT 30/12 A3005 RMK A01 T02950124  RH  035%=      5-min Rain = 0
KHO1 241731Z 10006G12KT 30/12 A3005 RMK A01 T02960119  RH  034%=      5-min Rain = 0
KHO1 241732Z 11005KT 30/12 A3005 RMK A01 T02970122  RH  034%=      5-min Rain = 0
KHO1 241733Z 12007KT 30/13 A3004 RMK A01 T02950125  RH  035%=      5-min Rain = 0
KHO1 241734Z 08006KT 29/13 A3005 RMK A01 T02940129  RH  036%=      5-min Rain = 0
KHO1 241735Z 07007KT 30/13 A3005 RMK A01 T02960130  RH  036%=      5-min Rain = 0
KHO1 241736Z 07005KT 30/13 A3005 RMK A01 T02980128  RH  035%=      5-min Rain = 0
KHO1 241737Z 05004KT 30/13 A3005 RMK A01 T03000127  RH  035%=      5-min Rain = 0
KHO1 241738Z 08007KT 30/13 A3005 RMK A01 T03000129  RH  035%=      5-min Rain = 0
KHO1 241739Z 08008KT 30/13 A3004 RMK A01 T02990125  RH  034%=      5-min Rain = 0
KHO1 241740Z 08006KT 30/12 A3005 RMK A01 T03000123  RH  034%=      5-min Rain = 0
KHO1 241741Z 06006KT 30/12 A3005 RMK A01 T03000121  RH  033%=      5-min Rain = 0
KHO1 241742Z 05006KT 30/12 A3004 RMK A01 T03000119  RH  033%=      5-min Rain = 0
KHO1 241743Z 05006KT 30/12 A3004 RMK A01 T02980124  RH  034%=      5-min Rain = 0
KHO1 241744Z 08005KT 30/13 A3004 RMK A01 T02960128  RH  035%=      5-min Rain = 0
KHO1 241745Z 06005KT 30/13 A3005 RMK A01 T02960129  RH  036%=      5-min Rain = 0
KHO1 241746Z 10009KT 30/13 A3005 RMK A01 T02970126  RH  035%=      5-min Rain = 0
KHO1 241747Z 10008KT 30/12 A3005 RMK A01 T02990124  RH  034%=      5-min Rain = 0
KHO1 241748Z 07005KT 30/12 A3005 RMK A01 T03010122  RH  033%=      5-min Rain = 0
KHO1 241749Z 09005KT 30/12 A3005 RMK A01 T03010123  RH  034%=      5-min Rain = 0
KHO1 241750Z 09006KT 30/13 A3005 RMK A01 T03030125  RH  034%=      5-min Rain = 0
KHO1 241751Z 06005KT 31/12 A3005 RMK A01 T03050123  RH  033%=      5-min Rain = 0
KHO1 241752Z 07005KT 30/12 A3005 RMK A01 T03020121  RH  033%=      5-min Rain = 0
KHO1 241753Z 04003KT 30/12 A3005 RMK A01 T03010119  RH  033%=      5-min Rain = 0
KHO1 241754Z 02001KT 30/12 A3004 RMK A01 T02970121  RH  034%=      5-min Rain = 0
KHO1 241755Z 04002KT 30/12 A3004 RMK A01 T02960123  RH  034%=      5-min Rain = 0
KHO1 241756Z 03007KT 30/12 A3004 RMK A01 T02960123  RH  034%=      5-min Rain = 0
KHO1 241757Z 06005KT 30/13 A3004 RMK A01 T02960125  RH  035%=      5-min Rain = 0
KHO1 241758Z 08005KT 30/13 A3004 RMK A01 T02980125  RH  034%=      5-min Rain = 0
KHO1 241759Z 09003KT 30/12 A3004 RMK A01 T03010124  RH  034%=      5-min Rain = 0
KHO1 241800Z 10005KT 30/12 A3004 RMK A01 T03030124  RH  033%=      5-min Rain = 0
KHO1 241801Z 11007KT 30/12 A3004 RMK A01 T03040124  RH  033%=      5-min Rain = 0
KHO1 241802Z 11010KT 30/12 A3004 RMK A01 T03040120  RH  032%=      5-min Rain = 0
KHO1 241803Z 12008KT 30/12 A3004 RMK A01 T03000116  RH  032%=      5-min Rain = 0
KHO1 241804Z 11010KT 30/12 A3004 RMK A01 T03000119  RH  033%=      5-min Rain = 0
KHO1 241805Z 10008KT 30/12 A3004 RMK A01 T03020120  RH  033%=      5-min Rain = 0
KHO1 241806Z 10003KT 30/12 A3004 RMK A01 T03040118  RH  032%=      5-min Rain = 0
KHO1 241807Z 06003KT 30/12 A3004 RMK A01 T03040118  RH  032%=      5-min Rain = 0
KHO1 241808Z 05003KT 31/12 A3004 RMK A01 T03060115  RH  031%=      5-min Rain = 0
KHO1 241809Z 13005KT 31/12 A3004 RMK A01 T03060117  RH  031%=      5-min Rain = 0
KHO1 241810Z 14007KT 30/12 A3004 RMK A01 T03030116  RH  032%=      5-min Rain = 0
KHO1 241811Z 13007KT 30/11 A3004 RMK A01 T03010114  RH  032%=      5-min Rain = 0
KHO1 241812Z 11008KT 30/12 A3004 RMK A01 T03020115  RH  032%=      5-min Rain = 0
KHO1 241813Z 09004KT 31/12 A3004 RMK A01 T03060122  RH  032%=      5-min Rain = 0
KHO1 241814Z 09005KT 31/12 A3004 RMK A01 T03080124  RH  032%=      5-min Rain = 0
KHO1 241815Z 09005G10KT 31/12 A3004 RMK A01 T03110122  RH  031%=      5-min Rain = 0
KHO1 241816Z 09009G18KT 31/12 A3004 RMK A01 T03090120  RH  031%=      5-min Rain = 0
KHO1 241817Z 07006KT 31/12 A3004 RMK A01 T03100119  RH  031%=      5-min Rain = 0
KHO1 241818Z 07007KT 31/12 A3004 RMK A01 T03120118  RH  030%=      5-min Rain = 0
KHO1 241819Z 08005KT 31/12 A3004 RMK A01 T03130119  RH  030%=      5-min Rain = 0
KHO1 241820Z 06006KT 31/12 A3003 RMK A01 T03120119  RH  030%=      5-min Rain = 0
KHO1 241821Z 05004KT 31/12 A3003 RMK A01 T03130117  RH  030%=      5-min Rain = 0
KHO1 241822Z 06004KT 31/12 A3003 RMK A01 T03120120  RH  031%=      5-min Rain = 0
KHO1 241823Z 07004KT 31/12 A3003 RMK A01 T03140122  RH  031%=      5-min Rain = 0
KHO1 241824Z 03005KT 32/12 A3003 RMK A01 T03160121  RH  030%=      5-min Rain = 0
KHO1 241825Z 04007KT 32/12 A3003 RMK A01 T03160121  RH  030%=      5-min Rain = 0
KHO1 241826Z 03009KT 31/12 A3003 RMK A01 T03130117  RH  030%=      5-min Rain = 0
KHO1 241827Z 12007KT 31/12 A3003 RMK A01 T03090116  RH  031%=      5-min Rain = 0
KHO1 241828Z 15004KT 30/11 A3003 RMK A01 T03010110  RH  031%=      5-min Rain = 0
KHO1 241829Z 14004KT 30/11 A3003 RMK A01 T02950112  RH  032%=      5-min Rain = 0
KHO1 241830Z 08006G12KT 30/12 A3003 RMK A01 T02970117  RH  033%=      5-min Rain = 0
KHO1 241831Z 11005KT 30/12 A3003 RMK A01 T03040118  RH  032%=      5-min Rain = 0
KHO1 241832Z 10009KT 31/12 A3003 RMK A01 T03090118  RH  031%=      5-min Rain = 0
KHO1 241833Z 10007KT 31/12 A3003 RMK A01 T03130115  RH  030%=      5-min Rain = 0
KHO1 241834Z 13006KT 31/11 A3003 RMK A01 T03130113  RH  029%=      5-min Rain = 0
KHO1 241835Z 14004KT 31/11 A3003 RMK A01 T03080112  RH  030%=      5-min Rain = 0
KHO1 241836Z 09005KT 31/12 A3003 RMK A01 T03080115  RH  031%=      5-min Rain = 0
KHO1 241837Z 08005KT 31/12 A3003 RMK A01 T03140115  RH  029%=      5-min Rain = 0
KHO1 241838Z 07003KT 32/11 A3003 RMK A01 T03180114  RH  029%=      5-min Rain = 0
KHO1 241839Z 04001KT 32/11 A3003 RMK A01 T03190114  RH  028%=      5-min Rain = 0
KHO1 241840Z 10003KT 32/11 A3003 RMK A01 T03190112  RH  028%=      5-min Rain = 0
KHO1 241841Z 14003KT 31/11 A3003 RMK A01 T03130107  RH  028%=      5-min Rain = 0
KHO1 241842Z 13004KT 31/11 A3003 RMK A01 T03070106  RH  029%=      5-min Rain = 0
KHO1 241843Z 12004KT 31/11 A3003 RMK A01 T03060111  RH  030%=      5-min Rain = 0
KHO1 241844Z 22001KT 31/11 A3003 RMK A01 T03080108  RH  029%=      5-min Rain = 0
KHO1 241845Z 12002KT 31/11 A3002 RMK A01 T03100110  RH  029%=      5-min Rain = 0
KHO1 241846Z 09005KT 31/11 A3003 RMK A01 T03110111  RH  029%=      5-min Rain = 0
KHO1 241847Z 09005KT 31/11 A3003 RMK A01 T03130111  RH  029%=      5-min Rain = 0
KHO1 241848Z 09005KT 32/11 A3003 RMK A01 T03150110  RH  028%=      5-min Rain = 0
KHO1 241849Z 10007KT 32/11 A3002 RMK A01 T03160107  RH  028%=      5-min Rain = 0
KHO1 241850Z 11008KT 32/11 A3002 RMK A01 T03160107  RH  028%=      5-min Rain = 0
KHO1 241851Z 11007KT 32/10 A3002 RMK A01 T03150103  RH  027%=      5-min Rain = 0
KHO1 241852Z 11007KT 32/10 A3002 RMK A01 T03170104  RH  027%=      5-min Rain = 0
KHO1 241853Z 12006KT 32/10 A3002 RMK A01 T03190103  RH  026%=      5-min Rain = 0
KHO1 241854Z 11005KT 32/10 A3002 RMK A01 T03200102  RH  026%=      5-min Rain = 0
KHO1 241855Z 09007KT 32/10 A3002 RMK A01 T03200104  RH  027%=      5-min Rain = 0
KHO1 241856Z 08005KT 32/11 A3002 RMK A01 T03220105  RH  026%=      5-min Rain = 0
KHO1 241857Z 05004KT 32/11 A3002 RMK A01 T03230105  RH  026%=      5-min Rain = 0
KHO1 241858Z 03004KT 32/10 A3002 RMK A01 T03210104  RH  026%=      5-min Rain = 0
KHO1 241859Z 09003KT 32/11 A3002 RMK A01 T03160108  RH  028%=      5-min Rain = 0
KHO1 241900Z 11004KT 32/11 A3002 RMK A01 T03160110  RH  028%=      5-min Rain = 0
KHO1 241901Z 15009KT 32/09 A3002 RMK A01 T03160092  RH  025%=      5-min Rain = 0
KHO1 241902Z 15007KT 31/09 A3002 RMK A01 T03110089  RH  025%=      5-min Rain = 0
KHO1 241903Z 11006KT 31/09 A3002 RMK A01 T03100091  RH  026%=      5-min Rain = 0
KHO1 241904Z 11010KT 32/09 A3002 RMK A01 T03150090  RH  025%=      5-min Rain = 0
KHO1 241905Z 11007KT 32/09 A3002 RMK A01 T03190089  RH  024%=      5-min Rain = 0
KHO1 241906Z 13008KT 32/09 A3002 RMK A01 T03210088  RH  024%=      5-min Rain = 0
KHO1 241907Z 16009KT 32/09 A3002 RMK A01 T03200085  RH  023%=      5-min Rain = 0
KHO1 241908Z 16007KT 32/09 A3002 RMK A01 T03160085  RH  024%=      5-min Rain = 0
KHO1 241909Z 17010KT 32/09 A3002 RMK A01 T03160089  RH  025%=      5-min Rain = 0
KHO1 241910Z 17008KT 31/09 A3002 RMK A01 T03110085  RH  025%=      5-min Rain = 0
KHO1 241911Z 19008KT 31/08 A3002 RMK A01 T03100082  RH  024%=      5-min Rain = 0
KHO1 241912Z 20007KT 31/08 A3002 RMK A01 T03070079  RH  024%=      5-min Rain = 0
KHO1 241913Z 16005KT 31/08 A3002 RMK A01 T03070081  RH  024%=      5-min Rain = 0
KHO1 241914Z 16006KT 31/08 A3002 RMK A01 T03080083  RH  025%=      5-min Rain = 0
KHO1 241915Z 17009KT 31/08 A3002 RMK A01 T03090081  RH  024%=      5-min Rain = 0
KHO1 241916Z 16009KT 31/08 A3002 RMK A01 T03120080  RH  024%=      5-min Rain = 0
KHO1 241917Z 19008KT 31/08 A3002 RMK A01 T03100081  RH  024%=      5-min Rain = 0
KHO1 241918Z 19005KT 31/08 A3002 RMK A01 T03080081  RH  024%=      5-min Rain = 0
KHO1 241919Z 16005KT 31/08 A3002 RMK A01 T03070082  RH  025%=      5-min Rain = 0
KHO1 241920Z 18005KT 31/08 A3002 RMK A01 T03050080  RH  024%=      5-min Rain = 0
KHO1 241921Z 20005KT 31/08 A3002 RMK A01 T03050078  RH  024%=      5-min Rain = 0
KHO1 241922Z 22004KT 31/08 A3002 RMK A01 T03070077  RH  024%=      5-min Rain = 0
KHO1 241923Z 19003KT 31/08 A3002 RMK A01 T03090079  RH  024%=      5-min Rain = 0
KHO1 241924Z 14004KT 31/09 A3002 RMK A01 T03090089  RH  025%=      5-min Rain = 0
KHO1 241925Z 19003KT 31/09 A3002 RMK A01 T03100088  RH  025%=      5-min Rain = 0
KHO1 241926Z 20005KT 31/09 A3002 RMK A01 T03110088  RH  025%=      5-min Rain = 0
KHO1 241927Z 21003KT 31/08 A3002 RMK A01 T03080084  RH  025%=      5-min Rain = 0
KHO1 241928Z 22002KT 31/08 A3002 RMK A01 T03080084  RH  025%=      5-min Rain = 0
KHO1 241929Z 28000KT 31/09 A3002 RMK A01 T03070085  RH  025%=      5-min Rain = 0
KHO1 241930Z 29003KT 31/09 A3002 RMK A01 T03100089  RH  025%=      5-min Rain = 0
KHO1 241931Z 27004KT 31/09 A3001 RMK A01 T03140088  RH  025%=      5-min Rain = 0
KHO1 241932Z 29003KT 32/09 A3001 RMK A01 T03150088  RH  024%=      5-min Rain = 0
KHO1 241933Z 32001KT 32/09 A3001 RMK A01 T03150089  RH  025%=      5-min Rain = 0
KHO1 241934Z 28002KT 32/09 A3001 RMK A01 T03160090  RH  025%=      5-min Rain = 0
KHO1 241935Z 30004KT 32/09 A3001 RMK A01 T03180091  RH  025%=      5-min Rain = 0
KHO1 241936Z 34003KT 32/09 A3001 RMK A01 T03180089  RH  024%=      5-min Rain = 0
KHO1 241937Z 35006KT 32/09 A3001 RMK A01 T03180091  RH  025%=      5-min Rain = 0
KHO1 241938Z 34007KT 32/09 A3001 RMK A01 T03180088  RH  024%=      5-min Rain = 0
KHO1 241939Z 36005KT 32/09 A3001 RMK A01 T03150087  RH  024%=      5-min Rain = 0
KHO1 241940Z 36004KT 31/09 A3001 RMK A01 T03140088  RH  025%=      5-min Rain = 0
KHO1 241941Z 02002KT 31/09 A3001 RMK A01 T03130088  RH  025%=      5-min Rain = 0
KHO1 241942Z 02003KT 31/09 A3001 RMK A01 T03130089  RH  025%=      5-min Rain = 0
KHO1 241943Z 07004KT 31/09 A3001 RMK A01 T03140091  RH  025%=      5-min Rain = 0
KHO1 241944Z 07005KT 32/09 A3001 RMK A01 T03180089  RH  024%=      5-min Rain = 0
KHO1 241945Z 05006KT 32/09 A3001 RMK A01 T03210088  RH  024%=      5-min Rain = 0
KHO1 241946Z 06005KT 32/09 A3001 RMK A01 T03240088  RH  023%=      5-min Rain = 0
KHO1 241947Z 04006KT 33/09 A3001 RMK A01 T03250087  RH  023%=      5-min Rain = 0
KHO1 241948Z 00006KT 32/09 A30 RMK A01 T03220085  RH  023%=      5-min Rain = 0
KHO1 241949Z 00005KT 32/09 A30 RMK A01 T03150086  RH  024%=      5-min Rain = 0
KHO1 241950Z 36005KT 32/09 A30 RMK A01 T03150087  RH  024%=      5-min Rain = 0
KHO1 241951Z 03003KT 32/09 A30 RMK A01 T03180089  RH  024%=      5-min Rain = 0
KHO1 241952Z 13006KT 32/09 A30 RMK A01 T03200087  RH  024%=      5-min Rain = 0
KHO1 241953Z 18002KT 32/08 A30 RMK A01 T03160084  RH  024%=      5-min Rain = 0
KHO1 241954Z 01002KT 32/09 A30 RMK A01 T03150085  RH  024%=      5-min Rain = 0
KHO1 241955Z 06003KT 32/09 A30 RMK A01 T03170090  RH  025%=      5-min Rain = 0
KHO1 241956Z 02003KT 32/09 A30 RMK A01 T03200087  RH  024%=      5-min Rain = 0
KHO1 241957Z 03005KT 32/09 A30 RMK A01 T03220090  RH  024%=      5-min Rain = 0
KHO1 241958Z 04004KT 32/09 A30 RMK A01 T03210090  RH  024%=      5-min Rain = 0
KHO1 241959Z 35006KT 32/09 A30 RMK A01 T03210090  RH  024%=      5-min Rain = 0
KHO1 242000Z 34007KT 32/09 A30 RMK A01 T03230092  RH  024%=      5-min Rain = 0
KHO1 242001Z 33005KT 32/09 A30 RMK A01 T03220091  RH  024%=      5-min Rain = 0
KHO1 242002Z 35005KT 32/09 A30 RMK A01 T03200091  RH  024%=      5-min Rain = 0
KHO1 242003Z 36002KT 32/09 A30 RMK A01 T03180090  RH  024%=      5-min Rain = 0
KHO1 242004Z 13003KT 32/09 A30 RMK A01 T03190091  RH  025%=      5-min Rain = 0
KHO1 242005Z 16003KT 32/09 A30 RMK A01 T03190090  RH  024%=      5-min Rain = 0
KHO1 242006Z 12005KT 32/09 A30 RMK A01 T03190092  RH  025%=      5-min Rain = 0
KHO1 242007Z 12008KT 32/09 A30 RMK A01 T03220091  RH  024%=      5-min Rain = 0
KHO1 242008Z 14005KT 32/09 A30 RMK A01 T03180089  RH  024%=      5-min Rain = 0
KHO1 242009Z 11006KT 32/09 A30 RMK A01 T03200094  RH  025%=      5-min Rain = 0
KHO1 242010Z 10003KT 32/09 A30 RMK A01 T03240093  RH  024%=      5-min Rain = 0
KHO1 242011Z 04002KT 33/09 A30 RMK A01 T03260091  RH  023%=      5-min Rain = 0
KHO1 242012Z 04000KT 33/09 A2999 RMK A01 T03290092  RH  023%=      5-min Rain = 0
KHO1 242013Z 04004KT 33/09 A2999 RMK A01 T03310092  RH  023%=      5-min Rain = 0
KHO1 242014Z 03003KT 33/09 A2999 RMK A01 T03300092  RH  023%=      5-min Rain = 0
KHO1 242015Z 03003KT 33/09 A2999 RMK A01 T03290090  RH  023%=      5-min Rain = 0
KHO1 242016Z 01002KT 33/09 A2999 RMK A01 T03280092  RH  023%=      5-min Rain = 0
KHO1 242017Z 07003KT 33/10 A2999 RMK A01 T03300095  RH  024%=      5-min Rain = 0
KHO1 242018Z 08004KT 33/10 A2999 RMK A01 T03330096  RH  023%=      5-min Rain = 0
KHO1 242019Z 06004KT 34/09 A2999 RMK A01 T03370094  RH  023%=      5-min Rain = 0
KHO1 242020Z 05004KT 34/09 A2999 RMK A01 T03380092  RH  022%=      5-min Rain = 0
KHO1 242021Z 08002KT 34/09 A2999 RMK A01 T03360091  RH  022%=      5-min Rain = 0
KHO1 242022Z 14003KT 33/09 A2999 RMK A01 T03290088  RH  023%=      5-min Rain = 0
KHO1 242023Z 03001KT 33/09 A2999 RMK A01 T03270090  RH  023%=      5-min Rain = 0
KHO1 242024Z 11003KT 33/10 A2999 RMK A01 T03280095  RH  024%=      5-min Rain = 0
KHO1 242025Z 09002KT 33/09 A2999 RMK A01 T03320093  RH  023%=      5-min Rain = 0
KHO1 242026Z 14004KT 33/09 A2999 RMK A01 T03340088  RH  022%=      5-min Rain = 0
KHO1 242027Z 15006KT 33/09 A2999 RMK A01 T03330087  RH  022%=      5-min Rain = 0
KHO1 242028Z 17010KT 33/08 A2999 RMK A01 T03310084  RH  022%=      5-min Rain = 0
KHO1 242029Z 16009KT 33/08 A2999 RMK A01 T03260082  RH  022%=      5-min Rain = 0
KHO1 242030Z 18004KT 32/08 A2999 RMK A01 T03200082  RH  023%=      5-min Rain = 0
KHO1 242031Z 16003KT 32/08 A2999 RMK A01 T03220082  RH  023%=      5-min Rain = 0
KHO1 242032Z 09002KT 32/08 A2999 RMK A01 T03240084  RH  023%=      5-min Rain = 0
KHO1 242033Z 11002KT 33/08 A2999 RMK A01 T03260083  RH  022%=      5-min Rain = 0
KHO1 242034Z 14004KT 33/08 A2999 RMK A01 T03280081  RH  022%=      5-min Rain = 0
KHO1 242035Z 14002KT 33/08 A2999 RMK A01 T03260080  RH  022%=      5-min Rain = 0
KHO1 242036Z 35003KT 33/08 A2999 RMK A01 T03260079  RH  022%=      5-min Rain = 0
KHO1 242037Z 01005KT 32/08 A2998 RMK A01 T03240079  RH  022%=      5-min Rain = 0
KHO1 242038Z 00003KT 33/08 A2998 RMK A01 T03250081  RH  022%=      5-min Rain = 0
KHO1 242039Z 14004KT 33/08 A2998 RMK A01 T03280081  RH  022%=      5-min Rain = 0
KHO1 242040Z 14005KT 33/08 A2998 RMK A01 T03300084  RH  022%=      5-min Rain = 0
KHO1 242041Z 14006KT 33/09 A2998 RMK A01 T03300086  RH  022%=      5-min Rain = 0
KHO1 242042Z 11006KT 33/09 A2998 RMK A01 T03300088  RH  022%=      5-min Rain = 0
KHO1 242043Z 10008KT 34/08 A2998 RMK A01 T03370083  RH  021%=      5-min Rain = 0
KHO1 242044Z 11007KT 34/08 A2998 RMK A01 T03420081  RH  020%=      5-min Rain = 0
KHO1 242045Z 12008KT 34/08 A2998 RMK A01 T03430081  RH  020%=      5-min Rain = 0
KHO1 242046Z 12008KT 34/08 A2998 RMK A01 T03410081  RH  020%=      5-min Rain = 0
KHO1 242047Z 11007KT 34/08 A2998 RMK A01 T03390080  RH  020%=      5-min Rain = 0
KHO1 242048Z 11005KT 33/08 A2998 RMK A01 T03340080  RH  021%=      5-min Rain = 0
KHO1 242049Z 09006KT 33/08 A2998 RMK A01 T03320081  RH  021%=      5-min Rain = 0
KHO1 242050Z 08004KT 33/08 A2998 RMK A01 T03340083  RH  021%=      5-min Rain = 0
KHO1 242051Z 08003KT 34/08 A2998 RMK A01 T03370084  RH  021%=      5-min Rain = 0
KHO1 242052Z 07001KT 34/08 A2998 RMK A01 T03390083  RH  021%=      5-min Rain = 0
KHO1 242053Z 01002KT 34/08 A2998 RMK A01 T03410081  RH  020%=      5-min Rain = 0
KHO1 242054Z 34003KT 34/08 A2998 RMK A01 T03390081  RH  020%=      5-min Rain = 0
KHO1 242055Z 31003KT 33/08 A2998 RMK A01 T03340082  RH  021%=      5-min Rain = 0
KHO1 242056Z 28003KT 33/08 A2998 RMK A01 T03300083  RH  022%=      5-min Rain = 0
KHO1 242057Z 26002KT 33/08 A2998 RMK A01 T03300083  RH  022%=      5-min Rain = 0
KHO1 242058Z 16004KT 33/08 A2997 RMK A01 T03310083  RH  022%=      5-min Rain = 0
KHO1 242059Z 10006G12KT 33/09 A2997 RMK A01 T03340085  RH  022%=      5-min Rain = 0
KHO1 242100Z 12006G11KT 34/08 A2997 RMK A01 T03380083  RH  021%=      5-min Rain = 0
KHO1 242101Z 11008KT 34/08 A2997 RMK A01 T03390082  RH  020%=      5-min Rain = 0
KHO1 242102Z 12008KT 34/08 A2997 RMK A01 T03420079  RH  020%=      5-min Rain = 0
KHO1 242103Z 08004KT 34/08 A2997 RMK A01 T03410081  RH  020%=      5-min Rain = 0
KHO1 242104Z 08004KT 35/08 A2997 RMK A01 T03450082  RH  020%=      5-min Rain = 0
KHO1 242105Z 07005KT 35/08 A2997 RMK A01 T03490078  RH  019%=      5-min Rain = 0
KHO1 242106Z 05003KT 35/07 A2997 RMK A01 T03490074  RH  018%=      5-min Rain = 0
KHO1 242107Z 05002KT 35/08 A2997 RMK A01 T03490075  RH  019%=      5-min Rain = 0
KHO1 242108Z 09005KT 35/08 A2997 RMK A01 T03500075  RH  018%=      5-min Rain = 0
KHO1 242109Z 09005KT 35/08 A2997 RMK A01 T03500075  RH  018%=      5-min Rain = 0
KHO1 242110Z 13005KT 35/07 A2997 RMK A01 T03510072  RH  018%=      5-min Rain = 0
KHO1 242111Z 14005KT 34/07 A2997 RMK A01 T03440068  RH  018%=      5-min Rain = 0
KHO1 242112Z 11007KT 34/08 A2997 RMK A01 T03420078  RH  020%=      5-min Rain = 0
KHO1 242113Z 12005KT 35/08 A2997 RMK A01 T03450076  RH  019%=      5-min Rain = 0
KHO1 242114Z 11003KT 34/07 A2997 RMK A01 T03390072  RH  019%=      5-min Rain = 0
KHO1 242115Z 12001KT 34/08 A2997 RMK A01 T03370076  RH  020%=      5-min Rain = 0
KHO1 242116Z 02002KT 34/07 A2997 RMK A01 T03400074  RH  019%=      5-min Rain = 0
KHO1 242117Z 30002KT 34/08 A2997 RMK A01 T03420076  RH  019%=      5-min Rain = 0
KHO1 242118Z 29001KT 34/06 A2997 RMK A01 T03440062  RH  018%=      5-min Rain = 0
KHO1 242119Z 33003KT 34/05 A2997 RMK A01 T03440048  RH  016%=      5-min Rain = 0
KHO1 242120Z 25004KT 35/05 A2997 RMK A01 T03460049  RH  016%=      5-min Rain = 0
KHO1 242121Z 21004KT 34/04 A2997 RMK A01 T03440041  RH  015%=      5-min Rain = 0
KHO1 242122Z 19002KT 34/04 A2997 RMK A01 T03410039  RH  015%=      5-min Rain = 0
KHO1 242123Z 27002KT 34/04 A2997 RMK A01 T03410042  RH  015%=      5-min Rain = 0
KHO1 242124Z 19004KT 34/05 A2996 RMK A01 T03420047  RH  016%=      5-min Rain = 0
KHO1 242125Z 15009KT 34/06 A2996 RMK A01 T03410062  RH  018%=      5-min Rain = 0
KHO1 242126Z 15005KT 34/06 A2996 RMK A01 T03360063  RH  018%=      5-min Rain = 0
KHO1 242127Z 17006KT 34/06 A2996 RMK A01 T03350061  RH  018%=      5-min Rain = 0
KHO1 242128Z 16005KT 33/06 A2996 RMK A01 T03330064  RH  019%=      5-min Rain = 0
KHO1 242129Z 12005KT 33/06 A2996 RMK A01 T03330063  RH  019%=      5-min Rain = 0
KHO1 242130Z 17004KT 34/06 A2996 RMK A01 T03350063  RH  018%=      5-min Rain = 0
KHO1 242131Z 19005KT 34/06 A2996 RMK A01 T03360057  RH  018%=      5-min Rain = 0
KHO1 242132Z 19006KT 34/05 A2996 RMK A01 T03350054  RH  017%=      5-min Rain = 0
KHO1 242133Z 19005KT 33/05 A2996 RMK A01 T03320051  RH  017%=      5-min Rain = 0
KHO1 242134Z 21006KT 33/05 A2996 RMK A01 T03290053  RH  018%=      5-min Rain = 0
KHO1 242135Z 22006KT 33/05 A2996 RMK A01 T03300054  RH  018%=      5-min Rain = 0
KHO1 242136Z 22002KT 33/06 A2996 RMK A01 T03290055  RH  018%=      5-min Rain = 0
KHO1 242137Z 20005KT 33/06 A2996 RMK A01 T03280056  RH  018%=      5-min Rain = 0
KHO1 242138Z 18008KT 33/06 A2996 RMK A01 T03280057  RH  018%=      5-min Rain = 0
KHO1 242139Z 21007KT 33/05 A2996 RMK A01 T03270050  RH  018%=      5-min Rain = 0
KHO1 242140Z 20005KT 33/05 A2996 RMK A01 T03270045  RH  017%=      5-min Rain = 0
KHO1 242141Z 19004KT 33/05 A2996 RMK A01 T03280048  RH  017%=      5-min Rain = 0
KHO1 242142Z 24004KT 33/05 A2996 RMK A01 T03290051  RH  018%=      5-min Rain = 0
KHO1 242143Z 12005KT 33/05 A2996 RMK A01 T03290051  RH  018%=      5-min Rain = 0
KHO1 242144Z 17002KT 33/05 A2996 RMK A01 T03280051  RH  018%=      5-min Rain = 0
KHO1 242145Z 14004KT 33/05 A2996 RMK A01 T03300049  RH  017%=      5-min Rain = 0
KHO1 242146Z 11004KT 33/05 A2995 RMK A01 T03320052  RH  017%=      5-min Rain = 0
KHO1 242147Z 09005KT 34/06 A2995 RMK A01 T03370055  RH  017%=      5-min Rain = 0
KHO1 242148Z 09004KT 34/06 A2995 RMK A01 T03430055  RH  017%=      5-min Rain = 0
KHO1 242149Z 10003KT 35/05 A2995 RMK A01 T03460051  RH  016%=      5-min Rain = 0
KHO1 242150Z 11003KT 35/04 A2995 RMK A01 T03450044  RH  015%=      5-min Rain = 0
KHO1 242151Z 16006KT 34/04 A2995 RMK A01 T03430038  RH  015%=      5-min Rain = 0
KHO1 242152Z 18006KT 34/03 A2995 RMK A01 T03440029  RH  014%=      5-min Rain = 0
KHO1 242153Z 16006KT 34/02 A2995 RMK A01 T03430023  RH  013%=      5-min Rain = 0
KHO1 242154Z 15005G10KT 34/02 A2995 RMK A01 T03400021  RH  013%=      5-min Rain = 0
KHO1 242155Z 15006KT 34/02 A2995 RMK A01 T03380022  RH  014%=      5-min Rain = 0
KHO1 242156Z 21010KT 34/03 A2995 RMK A01 T03420026  RH  014%=      5-min Rain = 0
KHO1 242157Z 20007KT 34/02 A2995 RMK A01 T03390022  RH  014%=      5-min Rain = 0
KHO1 242158Z 20008KT 34/02 A2995 RMK A01 T03380023  RH  014%=      5-min Rain = 0
KHO1 242159Z 22010KT 34/02 A2995 RMK A01 T03370023  RH  014%=      5-min Rain = 0
KHO1 242200Z 21008KT 33/02 A2995 RMK A01 T03340023  RH  014%=      5-min Rain = 0
KHO1 242201Z 17004KT 33/02 A2995 RMK A01 T03310022  RH  014%=      5-min Rain = 0
KHO1 242202Z 18003KT 33/02 A2995 RMK A01 T03290023  RH  014%=      5-min Rain = 0
KHO1 242203Z 20003KT 33/02 A2995 RMK A01 T03300024  RH  014%=      5-min Rain = 0
KHO1 242204Z 24005KT 33/03 A2994 RMK A01 T03330028  RH  015%=      5-min Rain = 0
KHO1 242205Z 23010KT 34/03 A2995 RMK A01 T03380028  RH  014%=      5-min Rain = 0
KHO1 242206Z 21006KT 34/03 A2995 RMK A01 T03360025  RH  014%=      5-min Rain = 0
KHO1 242207Z 22002KT 33/02 A2994 RMK A01 T03320024  RH  014%=      5-min Rain = 0
KHO1 242208Z 19005KT 33/02 A2994 RMK A01 T03310023  RH  014%=      5-min Rain = 0
KHO1 242209Z 19002KT 33/02 A2994 RMK A01 T03280023  RH  014%=      5-min Rain = 0
KHO1 242210Z 29003KT 33/03 A2994 RMK A01 T03290025  RH  015%=      5-min Rain = 0
KHO1 242211Z 32003KT 33/02 A2994 RMK A01 T03290024  RH  015%=      5-min Rain = 0
KHO1 242212Z 31002KT 33/03 A2994 RMK A01 T03290025  RH  015%=      5-min Rain = 0
KHO1 242213Z 27001KT 33/02 A2994 RMK A01 T03290024  RH  015%=      5-min Rain = 0
KHO1 242214Z 20004KT 33/03 A2994 RMK A01 T03280025  RH  015%=      5-min Rain = 0
KHO1 242215Z 20004KT 33/03 A2994 RMK A01 T03280025  RH  015%=      5-min Rain = 0
KHO1 242216Z 21004KT 33/02 A2994 RMK A01 T03270022  RH  014%=      5-min Rain = 0
KHO1 242217Z 20004KT 33/02 A2994 RMK A01 T03270020  RH  014%=      5-min Rain = 0
KHO1 242218Z 17003KT 33/02 A2994 RMK A01 T03280022  RH  014%=      5-min Rain = 0
KHO1 242219Z 16006KT 33/02 A2994 RMK A01 T03290018  RH  014%=      5-min Rain = 0
KHO1 242220Z 17007KT 33/01 A2994 RMK A01 T03290013  RH  013%=      5-min Rain = 0
KHO1 242221Z 19007KT 33/01 A2993 RMK A01 T03280010  RH  013%=      5-min Rain = 0
KHO1 242222Z 20005KT 33/01 A2993 RMK A01 T03270012  RH  013%=      5-min Rain = 0
KHO1 242223Z 22006KT 33/02 A2993 RMK A01 T03270015  RH  014%=      5-min Rain = 0
KHO1 242224Z 24008KT 33/02 A2993 RMK A01 T03290023  RH  014%=      5-min Rain = 0
KHO1 242225Z 27012KT 33/03 A2993 RMK A01 T03310025  RH  014%=      5-min Rain = 0
KHO1 242226Z 30008KT 33/03 A2993 RMK A01 T03340027  RH  014%=      5-min Rain = 0
KHO1 242227Z 29008KT 34/03 A2993 RMK A01 T03360027  RH  014%=      5-min Rain = 0
KHO1 242228Z 28004KT 34/03 A2993 RMK A01 T03360027  RH  014%=      5-min Rain = 0
KHO1 242229Z 29004KT 34/03 A2993 RMK A01 T03380027  RH  014%=      5-min Rain = 0
KHO1 242230Z 31004KT 34/03 A2993 RMK A01 T03390027  RH  014%=      5-min Rain = 0
KHO1 242231Z 33003KT 34/03 A2993 RMK A01 T03400031  RH  014%=      5-min Rain = 0
KHO1 242232Z 33003KT 34/03 A2993 RMK A01 T03420027  RH  014%=      5-min Rain = 0
KHO1 242233Z 35003KT 34/03 A2993 RMK A01 T03420025  RH  014%=      5-min Rain = 0
KHO1 242234Z 34003KT 34/03 A2993 RMK A01 T03420026  RH  014%=      5-min Rain = 0
KHO1 242235Z 30004KT 34/03 A2993 RMK A01 T03430026  RH  014%=      5-min Rain = 0
KHO1 242236Z 22006KT 35/02 A2993 RMK A01 T03450021  RH  013%=      5-min Rain = 0
KHO1 242237Z 24005KT 35/01 A2993 RMK A01 T03460013  RH  012%=      5-min Rain = 0
KHO1 242238Z 29007KT 35/01 A2993 RMK A01 T03480012  RH  012%=      5-min Rain = 0
KHO1 242239Z 28005KT 35/02 A2993 RMK A01 T03510020  RH  013%=      5-min Rain = 0
KHO1 242240Z 24004G9KT 35/01 A2993 RMK A01 T03500005  RH  011%=      5-min Rain = 0
KHO1 242241Z 22008KT 35/00 A2992 RMK A01 T03510004  RH  011%=      5-min Rain = 0
KHO1 242242Z 32010KT 35/03 A2993 RMK A01 T03510025  RH  013%=      5-min Rain = 0
KHO1 242243Z 28009KT 35/00 A2993 RMK A01 T03450000  RH  011%=      5-min Rain = 0
KHO1 242244Z 29007KT 34/M02 A2993 RMK A01 T03411016  RH  010%=      5-min Rain = 0
KHO1 242245Z 31006KT 34/M01 A2993 RMK A01 T03381010  RH  011%=      5-min Rain = 0
KHO1 242246Z 31004KT 34/M01 A2993 RMK A01 T03391011  RH  011%=      5-min Rain = 0
KHO1 242247Z 27006KT 34/M01 A2993 RMK A01 T03411008  RH  011%=      5-min Rain = 0
KHO1 242248Z 28007KT 34/M00 A2993 RMK A01 T03421002  RH  011%=      5-min Rain = 0
KHO1 242249Z 29006KT 35/01 A2993 RMK A01 T03460007  RH  012%=      5-min Rain = 0
KHO1 242250Z 23007KT 35/00 A2993 RMK A01 T03470002  RH  011%=      5-min Rain = 0
KHO1 242251Z 27013G19KT 35/01 A2992 RMK A01 T03480014  RH  012%=      5-min Rain = 0
KHO1 242252Z 31007KT 35/02 A2993 RMK A01 T03490018  RH  012%=      5-min Rain = 0
KHO1 242253Z 31009KT 35/00 A2993 RMK A01 T03480002  RH  011%=      5-min Rain = 0
KHO1 242254Z 27006KT 35/00 A2992 RMK A01 T03450001  RH  011%=      5-min Rain = 0
KHO1 242255Z 29006KT 35/00 A2993 RMK A01 T03460002  RH  011%=      5-min Rain = 0
KHO1 242256Z 28004KT 34/00 A2993 RMK A01 T03440000  RH  011%=      5-min Rain = 0
KHO1 242257Z 30004KT 34/00 A2993 RMK A01 T03430003  RH  012%=      5-min Rain = 0
KHO1 242258Z 29004KT 35/01 A2993 RMK A01 T03460008  RH  012%=      5-min Rain = 0
KHO1 242259Z 30008KT 35/01 A2992 RMK A01 T03480006  RH  011%=      5-min Rain = 0
KHO1 242300Z 30008KT 35/00 A2992 RMK A01 T03470002  RH  011%=      5-min Rain = 0
KHO1 242301Z 31008KT 35/00 A2992 RMK A01 T03470003  RH  011%=      5-min Rain = 0
KHO1 242302Z 29009KT 35/M02 A2992 RMK A01 T03481016  RH  010%=      5-min Rain = 0
KHO1 242303Z 28011KT 35/M03 A2992 RMK A01 T03501027  RH  009%=      5-min Rain = 0
KHO1 242304Z 29013KT 35/M03 A2992 RMK A01 T03511032  RH  009%=      5-min Rain = 0
KHO1 242305Z 28013KT 35/M03 A2992 RMK A01 T03501033  RH  009%=      5-min Rain = 0
KHO1 242306Z 29014KT 35/M04 A2992 RMK A01 T03471038  RH  008%=      5-min Rain = 0
KHO1 242307Z 28014KT 35/M04 A2992 RMK A01 T03471037  RH  008%=      5-min Rain = 0
KHO1 242308Z 29015KT 35/M03 A2992 RMK A01 T03471033  RH  009%=      5-min Rain = 0
KHO1 242309Z 29013KT 35/M03 A2992 RMK A01 T03461032  RH  009%=      5-min Rain = 0
KHO1 242310Z 30010KT 35/M03 A2992 RMK A01 T03471030  RH  009%=      5-min Rain = 0
KHO1 242311Z 29011KT 35/M03 A2992 RMK A01 T03471029  RH  009%=      5-min Rain = 0
KHO1 242312Z 29012KT 35/M04 A2992 RMK A01 T03461037  RH  008%=      5-min Rain = 0
KHO1 242313Z 30012KT 35/M03 A2992 RMK A01 T03461034  RH  009%=      5-min Rain = 0
KHO1 242314Z 29012KT 35/M03 A2992 RMK A01 T03451033  RH  009%=      5-min Rain = 0
KHO1 242315Z 28012KT 34/M03 A2992 RMK A01 T03441034  RH  009%=      5-min Rain = 0
KHO1 242316Z 26011KT 34/M05 A2992 RMK A01 T03441049  RH  008%=      5-min Rain = 0
KHO1 242317Z 29010KT 35/M04 A2992 RMK A01 T03451044  RH  008%=      5-min Rain = 0
KHO1 242318Z 29012KT 35/M04 A2992 RMK A01 T03461035  RH  009%=      5-min Rain = 0
KHO1 242319Z 28012KT 35/M03 A2992 RMK A01 T03471031  RH  009%=      5-min Rain = 0
KHO1 242320Z 27011KT 35/M03 A2992 RMK A01 T03451033  RH  009%=      5-min Rain = 0
KHO1 242321Z 27010KT 34/M03 A2992 RMK A01 T03441033  RH  009%=      5-min Rain = 0
KHO1 242322Z 27009KT 34/M03 A2992 RMK A01 T03441033  RH  009%=      5-min Rain = 0
KHO1 242323Z 28009KT 34/M04 A2992 RMK A01 T03431036  RH  009%=      5-min Rain = 0
KHO1 242324Z 27009KT 34/M04 A2992 RMK A01 T03431035  RH  009%=      5-min Rain = 0
KHO1 242325Z 29008KT 34/M03 A2992 RMK A01 T03431033  RH  009%=      5-min Rain = 0
KHO1 242326Z 28007KT 34/M03 A2992 RMK A01 T03421032  RH  009%=      5-min Rain = 0
KHO1 242327Z 27005KT 34/M03 A2992 RMK A01 T03411032  RH  009%=      5-min Rain = 0
KHO1 242328Z 30002KT 34/M03 A2991 RMK A01 T03401034  RH  009%=      5-min Rain = 0
KHO1 242329Z 28005KT 34/M03 A2991 RMK A01 T03421030  RH  009%=      5-min Rain = 0
KHO1 242330Z 31005KT 34/M03 A2991 RMK A01 T03441029  RH  009%=      5-min Rain = 0
KHO1 242331Z 32005KT 35/M03 A2991 RMK A01 T03451028  RH  009%=      5-min Rain = 0
KHO1 242332Z 32004KT 34/M03 A2991 RMK A01 T03441029  RH  009%=      5-min Rain = 0
KHO1 242333Z 32004KT 34/M03 A2991 RMK A01 T03441029  RH  009%=      5-min Rain = 0
KHO1 242334Z 32004KT 35/M03 A2991 RMK A01 T03451031  RH  009%=      5-min Rain = 0
KHO1 242335Z 31005KT 34/M03 A2991 RMK A01 T03441031  RH  009%=      5-min Rain = 0
KHO1 242336Z 28005KT 34/M03 A2991 RMK A01 T03441030  RH  009%=      5-min Rain = 0
KHO1 242337Z 30006KT 35/M03 A2991 RMK A01 T03451029  RH  009%=      5-min Rain = 0
KHO1 242338Z 31007KT 35/M03 A2991 RMK A01 T03451027  RH  009%=      5-min Rain = 0
KHO1 242339Z 30007KT 35/M02 A2991 RMK A01 T03451023  RH  009%=      5-min Rain = 0
KHO1 242340Z 27008KT 35/M03 A2991 RMK A01 T03451025  RH  009%=      5-min Rain = 0
KHO1 242341Z 27013KT 35/M04 A2991 RMK A01 T03461035  RH  009%=      5-min Rain = 0
KHO1 242342Z 28011KT 34/M03 A2991 RMK A01 T03441034  RH  009%=      5-min Rain = 0
KHO1 242343Z 29011KT 35/M03 A2991 RMK A01 T03451031  RH  009%=      5-min Rain = 0
KHO1 242344Z 29012KT 35/M03 A2991 RMK A01 T03451029  RH  009%=      5-min Rain = 0
KHO1 242345Z 29014KT 34/M03 A2991 RMK A01 T03441025  RH  009%=      5-min Rain = 0
KHO1 242346Z 28015KT 34/M03 A2991 RMK A01 T03431027  RH  009%=      5-min Rain = 0
KHO1 242347Z 29012KT 34/M03 A2991 RMK A01 T03411031  RH  009%=      5-min Rain = 0
KHO1 242348Z 28010KT 34/M03 A2991 RMK A01 T03421031  RH  009%=      5-min Rain = 0
KHO1 242349Z 27010KT 34/M04 A2991 RMK A01 T03421038  RH  009%=      5-min Rain = 0
KHO1 242350Z 28010KT 34/M04 A2991 RMK A01 T03421038  RH  009%=      5-min Rain = 0
KHO1 242351Z 27009G14KT 34/M04 A2991 RMK A01 T03431038  RH  009%=      5-min Rain = 0
KHO1 242352Z 30012KT 34/M04 A2991 RMK A01 T03431038  RH  009%=      5-min Rain = 0
KHO1 242353Z 30011KT 34/M04 A2991 RMK A01 T03421041  RH  008%=      5-min Rain = 0
KHO1 242354Z 30011KT 34/M04 A2991 RMK A01 T03421038  RH  009%=      5-min Rain = 0
KHO1 242355Z 30012KT 34/M04 A2991 RMK A01 T03421036  RH  009%=      5-min Rain = 0
KHO1 242356Z 30010KT 34/M03 A2991 RMK A01 T03411032  RH  009%=      5-min Rain = 0
KHO1 242357Z 31010KT 34/M03 A2991 RMK A01 T03411033  RH  009%=      5-min Rain = 0
KHO1 242358Z 31009KT 34/M03 A2991 RMK A01 T03411031  RH  009%=      5-min Rain = 0
KHO1 242359Z 29012KT 34/M03 A2991 RMK A01 T03411028  RH  009%=      5-min Rain = 0
KHO1 250000Z 30010KT 34/M03 A2991 RMK A01 T03401028  RH  009%=      5-min Rain = 0
KHO1 250001Z 31006KT 34/M03 A2991 RMK A01 T03391027  RH  009%=      5-min Rain = 0
KHO1 250002Z 32004KT 34/M03 A2991 RMK A01 T03391030  RH  009%=      5-min Rain = 0
KHO1 250003Z 33004KT 34/M03 A2991 RMK A01 T03401027  RH  009%=      5-min Rain = 0
KHO1 250004Z 30006KT 34/M02 A2991 RMK A01 T03411023  RH  010%=      5-min Rain = 0
KHO1 250005Z 30007KT 34/M02 A2991 RMK A01 T03411023  RH  010%=      5-min Rain = 0
KHO1 250006Z 27010KT 34/M02 A2991 RMK A01 T03411023  RH  010%=      5-min Rain = 0
KHO1 250007Z 26011KT 34/M03 A2991 RMK A01 T03401026  RH  009%=      5-min Rain = 0
KHO1 250008Z 27011KT 34/M03 A2991 RMK A01 T03391031  RH  009%=      5-min Rain = 0
KHO1 250009Z 27010KT 34/M03 A2991 RMK A01 T03381028  RH  009%=      5-min Rain = 0
KHO1 250010Z 28008KT 34/M03 A2991 RMK A01 T03391026  RH  010%=      5-min Rain = 0
KHO1 250011Z 28009KT 34/M02 A2991 RMK A01 T03401024  RH  010%=      5-min Rain = 0
KHO1 250012Z 28008KT 34/M03 A2991 RMK A01 T03401027  RH  009%=      5-min Rain = 0
KHO1 250013Z 27009KT 34/M03 A2991 RMK A01 T03391026  RH  010%=      5-min Rain = 0
KHO1 250014Z 26008KT 34/M02 A2991 RMK A01 T03391023  RH  010%=      5-min Rain = 0
KHO1 250015Z 27006KT 34/M02 A2991 RMK A01 T03411022  RH  010%=      5-min Rain = 0
KHO1 250016Z 25007KT 34/M02 A2991 RMK A01 T03421023  RH  010%=      5-min Rain = 0
KHO1 250017Z 25008KT 34/M02 A2991 RMK A01 T03411024  RH  010%=      5-min Rain = 0
KHO1 250018Z 25006KT 34/M03 A2991 RMK A01 T03391025  RH  010%=      5-min Rain = 0
KHO1 250019Z 25008KT 34/M02 A2992 RMK A01 T03391021  RH  010%=      5-min Rain = 0
KHO1 250020Z 24008KT 34/M02 A2992 RMK A01 T03381021  RH  010%=      5-min Rain = 0
KHO1 250021Z 26006KT 34/M02 A2992 RMK A01 T03391020  RH  010%=      5-min Rain = 0
KHO1 250022Z 26005KT 34/M02 A2992 RMK A01 T03391023  RH  010%=      5-min Rain = 0
KHO1 250023Z 27003KT 34/M02 A2992 RMK A01 T03391022  RH  010%=      5-min Rain = 0
KHO1 250024Z 24003KT 34/M02 A2992 RMK A01 T03391022  RH  010%=      5-min Rain = 0
KHO1 250025Z 25003KT 34/M02 A2992 RMK A01 T03391022  RH  010%=      5-min Rain = 0
KHO1 250026Z 28003KT 34/M02 A2992 RMK A01 T03401019  RH  010%=      5-min Rain = 0
KHO1 250027Z 29005KT 34/M02 A2992 RMK A01 T03421019  RH  010%=      5-min Rain = 0
KHO1 250028Z 30005KT 34/M02 A2992 RMK A01 T03421017  RH  010%=      5-min Rain = 0
KHO1 250029Z 30007KT 34/M02 A2992 RMK A01 T03411019  RH  010%=      5-min Rain = 0
KHO1 250030Z 29010KT 34/M03 A2992 RMK A01 T03411027  RH  009%=      5-min Rain = 0
KHO1 250031Z 26011KT 34/M03 A2992 RMK A01 T03391028  RH  009%=      5-min Rain = 0
KHO1 250032Z 26011KT 34/M03 A2992 RMK A01 T03381030  RH  009%=      5-min Rain = 0
KHO1 250033Z 26011KT 34/M03 A2992 RMK A01 T03371032  RH  009%=      5-min Rain = 0
KHO1 250034Z 27008KT 34/M03 A2992 RMK A01 T03371032  RH  009%=      5-min Rain = 0
KHO1 250035Z 27009KT 34/M03 A2992 RMK A01 T03371033  RH  009%=      5-min Rain = 0
KHO1 250036Z 26008KT 34/M03 A2992 RMK A01 T03361034  RH  009%=      5-min Rain = 0
KHO1 250037Z 28009KT 34/M04 A2992 RMK A01 T03361036  RH  009%=      5-min Rain = 0
KHO1 250038Z 27008KT 34/M04 A2992 RMK A01 T03361038  RH  009%=      5-min Rain = 0
KHO1 250039Z 23005KT 34/M04 A2992 RMK A01 T03361035  RH  009%=      5-min Rain = 0
KHO1 250040Z 23007KT 34/M03 A2992 RMK A01 T03361033  RH  009%=      5-min Rain = 0
KHO1 250041Z 24010KT 34/M04 A2992 RMK A01 T03361035  RH  009%=      5-min Rain = 0
KHO1 250042Z 25008KT 34/M03 A2992 RMK A01 T03351034  RH  009%=      5-min Rain = 0
KHO1 250043Z 25007KT 34/M03 A2992 RMK A01 T03351034  RH  009%=      5-min Rain = 0
KHO1 250044Z 26011KT 34/M03 A2992 RMK A01 T03351030  RH  009%=      5-min Rain = 0
KHO1 250045Z 26011KT 34/M03 A2992 RMK A01 T03351031  RH  009%=      5-min Rain = 0
KHO1 250046Z 26010KT 33/M03 A2992 RMK A01 T03341029  RH  010%=      5-min Rain = 0
KHO1 250047Z 26011KT 33/M03 A2992 RMK A01 T03341033  RH  009%=      5-min Rain = 0
KHO1 250048Z 25009KT 33/M03 A2992 RMK A01 T03331032  RH  009%=      5-min Rain = 0
KHO1 250049Z 26007KT 33/M03 A2992 RMK A01 T03331030  RH  010%=      5-min Rain = 0
KHO1 250050Z 26010KT 33/M03 A2992 RMK A01 T03341029  RH  010%=      5-min Rain = 0
KHO1 250051Z 28013KT 33/M03 A2992 RMK A01 T03341031  RH  010%=      5-min Rain = 0
KHO1 250052Z 28010KT 33/M03 A2992 RMK A01 T03331032  RH  009%=      5-min Rain = 0
KHO1 250053Z 27010KT 33/M03 A2992 RMK A01 T03331031  RH  009%=      5-min Rain = 0
KHO1 250054Z 27008KT 33/M03 A2992 RMK A01 T03331030  RH  010%=      5-min Rain = 0
KHO1 250055Z 27009KT 33/M03 A2992 RMK A01 T03341031  RH  009%=      5-min Rain = 0
KHO1 250056Z 29009KT 33/M03 A2992 RMK A01 T03341032  RH  009%=      5-min Rain = 0
KHO1 250057Z 28008KT 33/M03 A2993 RMK A01 T03331031  RH  009%=      5-min Rain = 0
KHO1 250058Z 28009KT 33/M03 A2993 RMK A01 T03331034  RH  009%=      5-min Rain = 0
KHO1 250059Z 29008KT 33/M03 A2993 RMK A01 T03331032  RH  009%=      5-min Rain = 0
KHO1 250100Z 29007KT 33/M03 A2993 RMK A01 T03331032  RH  009%=      5-min Rain = 0
KHO1 250101Z 29007KT 33/M03 A2993 RMK A01 T03321033  RH  009%=      5-min Rain = 0
KHO1 250102Z 29005KT 33/M03 A2993 RMK A01 T03321034  RH  009%=      5-min Rain = 0
KHO1 250103Z 30005KT 33/M03 A2993 RMK A01 T03321034  RH  009%=      5-min Rain = 0
KHO1 250104Z 29003KT 33/M04 A2993 RMK A01 T03331036  RH  009%=      5-min Rain = 0
KHO1 250105Z 29003KT 33/M04 A2993 RMK A01 T03331035  RH  009%=      5-min Rain = 0
KHO1 250106Z 31004KT 33/M03 A2993 RMK A01 T03331034  RH  009%=      5-min Rain = 0
KHO1 250107Z 31004KT 33/M03 A2993 RMK A01 T03331029  RH  010%=      5-min Rain = 0
KHO1 250108Z 29005KT 33/M03 A2993 RMK A01 T03331028  RH  010%=      5-min Rain = 0
KHO1 250109Z 29005KT 33/M03 A2993 RMK A01 T03321032  RH  009%=      5-min Rain = 0
KHO1 250110Z 28005KT 33/M03 A2993 RMK A01 T03321031  RH  010%=      5-min Rain = 0
KHO1 250111Z 28004KT 33/M03 A2993 RMK A01 T03321029  RH  010%=      5-min Rain = 0
KHO1 250112Z 28007KT 33/M03 A2993 RMK A01 T03321032  RH  009%=      5-min Rain = 0
KHO1 250113Z 28009KT 33/M04 A2993 RMK A01 T03321044  RH  009%=      5-min Rain = 0
KHO1 250114Z 28009KT 33/M05 A2993 RMK A01 T03311047  RH  009%=      5-min Rain = 0
KHO1 250115Z 28009KT 33/M05 A2993 RMK A01 T03301047  RH  009%=      5-min Rain = 0
KHO1 250116Z 29009KT 33/M05 A2993 RMK A01 T03301046  RH  009%=      5-min Rain = 0
KHO1 250117Z 28008KT 33/M05 A2993 RMK A01 T03291046  RH  009%=      5-min Rain = 0
KHO1 250118Z 28008KT 33/M05 A2993 RMK A01 T03291046  RH  009%=      5-min Rain = 0
KHO1 250119Z 27008KT 33/M05 A2993 RMK A01 T03291047  RH  009%=      5-min Rain = 0
KHO1 250120Z 28007KT 33/M05 A2993 RMK A01 T03291045  RH  009%=      5-min Rain = 0
KHO1 250121Z 28007KT 33/M05 A2993 RMK A01 T03281046  RH  009%=      5-min Rain = 0
KHO1 250122Z 29006KT 33/M05 A2993 RMK A01 T03281045  RH  009%=      5-min Rain = 0
KHO1 250123Z 28006KT 33/M05 A2993 RMK A01 T03281045  RH  009%=      5-min Rain = 0
KHO1 250124Z 29006KT 33/M04 A2993 RMK A01 T03271044  RH  009%=      5-min Rain = 0
KHO1 250125Z 29006KT 33/M05 A2993 RMK A01 T03271045  RH  009%=      5-min Rain = 0
KHO1 250126Z 29006KT 33/M05 A2993 RMK A01 T03261045  RH  009%=      5-min Rain = 0
KHO1 250127Z 29005KT 33/M05 A2993 RMK A01 T03261046  RH  009%=      5-min Rain = 0
KHO1 250128Z 29006KT 33/M05 A2993 RMK A01 T03261046  RH  009%=      5-min Rain = 0
KHO1 250129Z 30005KT 33/M05 A2993 RMK A01 T03261047  RH  009%=      5-min Rain = 0
KHO1 250130Z 29004KT 33/M04 A2993 RMK A01 T03261044  RH  009%=      5-min Rain = 0
KHO1 250131Z 30005KT 33/M04 A2993 RMK A01 T03261041  RH  009%=      5-min Rain = 0
KHO1 250132Z 29004KT 33/M04 A2993 RMK A01 T03251038  RH  009%=      5-min Rain = 0
KHO1 250133Z 28004KT 32/M04 A2993 RMK A01 T03231038  RH  010%=      5-min Rain = 0
KHO1 250134Z 29004KT 32/M04 A2993 RMK A01 T03221038  RH  010%=      5-min Rain = 0
KHO1 250135Z 29003KT 32/M04 A2993 RMK A01 T03221035  RH  010%=      5-min Rain = 0
KHO1 250136Z 28004KT 32/M04 A2993 RMK A01 T03211036  RH  010%=      5-min Rain = 0
KHO1 250137Z 29004KT 32/M04 A2993 RMK A01 T03201038  RH  010%=      5-min Rain = 0
KHO1 250138Z 29003KT 32/M04 A2993 RMK A01 T03201038  RH  010%=      5-min Rain = 0
KHO1 250139Z 29003KT 32/M04 A2993 RMK A01 T03191038  RH  010%=      5-min Rain = 0
KHO1 250140Z 30003KT 32/M04 A2993 RMK A01 T03191038  RH  010%=      5-min Rain = 0
KHO1 250141Z 29003KT 32/M04 A2993 RMK A01 T03191036  RH  010%=      5-min Rain = 0
KHO1 250142Z 29003KT 32/M04 A2993 RMK A01 T03181035  RH  010%=      5-min Rain = 0
KHO1 250143Z 30002KT 32/M03 A2994 RMK A01 T03181034  RH  010%=      5-min Rain = 0
KHO1 250144Z 30002KT 32/M03 A2994 RMK A01 T03181033  RH  010%=      5-min Rain = 0
KHO1 250145Z 31003KT 32/M03 A2994 RMK A01 T03171034  RH  010%=      5-min Rain = 0
KHO1 250146Z 31003KT 32/M03 A2994 RMK A01 T03161034  RH  010%=      5-min Rain = 0
KHO1 250147Z 30002KT 32/M04 A2994 RMK A01 T03161035  RH  010%=      5-min Rain = 0
KHO1 250148Z 30003KT 32/M03 A2994 RMK A01 T03151034  RH  010%=      5-min Rain = 0
KHO1 250149Z 30003KT 32/M03 A2994 RMK A01 T03151033  RH  010%=      5-min Rain = 0
KHO1 250150Z 30003KT 32/M03 A2994 RMK A01 T03151034  RH  010%=      5-min Rain = 0
KHO1 250151Z 30003KT 31/M04 A2994 RMK A01 T03141035  RH  010%=      5-min Rain = 0
KHO1 250152Z 31003KT 31/M04 A2994 RMK A01 T03131035  RH  010%=      5-min Rain = 0
KHO1 250153Z 31003KT 31/M04 A2994 RMK A01 T03131037  RH  010%=      5-min Rain = 0
KHO1 250154Z 31003KT 31/M04 A2994 RMK A01 T03131037  RH  010%=      5-min Rain = 0
KHO1 250155Z 30003KT 31/M04 A2994 RMK A01 T03121037  RH  010%=      5-min Rain = 0
KHO1 250156Z 31002KT 31/M04 A2994 RMK A01 T03121036  RH  010%=      5-min Rain = 0
KHO1 250157Z 31002KT 31/M04 A2994 RMK A01 T03121036  RH  010%=      5-min Rain = 0
KHO1 250158Z 30002KT 31/M04 A2994 RMK A01 T03121038  RH  010%=      5-min Rain = 0
KHO1 250159Z 29002KT 31/M04 A2994 RMK A01 T03111038  RH  010%=      5-min Rain = 0
KHO1 250200Z 28002KT 31/M04 A2994 RMK A01 T03111037  RH  010%=      5-min Rain = 0
KHO1 250201Z 27003KT 31/M04 A2994 RMK A01 T03111038  RH  010%=      5-min Rain = 0
KHO1 250202Z 28003KT 31/M04 A2994 RMK A01 T03101040  RH  010%=      5-min Rain = 0
KHO1 250203Z 28003KT 31/M04 A2994 RMK A01 T03101039  RH  010%=      5-min Rain = 0
KHO1 250204Z 29003KT 31/M04 A2994 RMK A01 T03081038  RH  010%=      5-min Rain = 0
KHO1 250205Z 28002KT 31/M04 A2994 RMK A01 T03071038  RH  010%=      5-min Rain = 0
KHO1 250206Z 29002KT 31/M04 A2994 RMK A01 T03051040  RH  010%=      5-min Rain = 0
KHO1 250207Z 30001KT 31/M04 A2994 RMK A01 T03051043  RH  010%=      5-min Rain = 0
KHO1 250208Z 30001KT 31/M04 A2994 RMK A01 T03051043  RH  010%=      5-min Rain = 0
KHO1 250209Z 30001KT 31/M04 A2994 RMK A01 T03051042  RH  010%=      5-min Rain = 0
KHO1 250210Z 30001KT 31/M04 A2994 RMK A01 T03051039  RH  010%=      5-min Rain = 0
KHO1 250211Z 30000KT 31/M04 A2994 RMK A01 T03051037  RH  011%=      5-min Rain = 0
KHO1 250212Z 30000KT 30/M04 A2994 RMK A01 T03041039  RH  011%=      5-min Rain = 0
KHO1 250213Z 30000KT 30/M04 A2994 RMK A01 T03031039  RH  011%=      5-min Rain = 0
KHO1 250214Z 00000KT 30/M04 A2994 RMK A01 T03021041  RH  011%=      5-min Rain = 0
KHO1 250215Z 00000KT 30/M04 A2994 RMK A01 T03021039  RH  011%=      5-min Rain = 0
KHO1 250216Z 00000KT 30/M04 A2994 RMK A01 T03011040  RH  011%=      5-min Rain = 0
KHO1 250217Z 00000KT 30/M04 A2994 RMK A01 T03001042  RH  011%=      5-min Rain = 0
KHO1 250218Z 00000KT 30/M04 A2994 RMK A01 T03001041  RH  011%=      5-min Rain = 0
KHO1 250219Z 00000KT 30/M04 A2994 RMK A01 T03001042  RH  011%=      5-min Rain = 0
KHO1 250220Z 00000KT 30/M04 A2994 RMK A01 T03001043  RH  010%=      5-min Rain = 0
KHO1 250221Z 00000KT 30/M04 A2994 RMK A01 T02991043  RH  010%=      5-min Rain = 0
KHO1 250222Z 30000KT 30/M04 A2994 RMK A01 T02991044  RH  010%=      5-min Rain = 0
KHO1 250223Z 30001KT 30/M04 A2994 RMK A01 T02991041  RH  011%=      5-min Rain = 0
KHO1 250224Z 30001KT 30/M03 A2994 RMK A01 T02961034  RH  011%=      5-min Rain = 0
KHO1 250225Z 30001KT 29/M03 A2994 RMK A01 T02921033  RH  012%=      5-min Rain = 0
KHO1 250226Z 30001KT 29/M04 A2994 RMK A01 T02881035  RH  012%=      5-min Rain = 0
KHO1 250227Z 30001KT 29/M04 A2994 RMK A01 T02851037  RH  012%=      5-min Rain = 0
KHO1 250228Z 30001KT 28/M04 A2994 RMK A01 T02831037  RH  012%=      5-min Rain = 0
KHO1 250229Z 30001KT 28/M04 A2994 RMK A01 T02811038  RH  012%=      5-min Rain = 0
KHO1 250230Z 30001KT 28/M04 A2994 RMK A01 T02811037  RH  012%=      5-min Rain = 0
KHO1 250231Z 30001KT 28/M04 A2994 RMK A01 T02801035  RH  012%=      5-min Rain = 0
KHO1 250232Z 30001KT 28/M03 A2994 RMK A01 T02801034  RH  013%=      5-min Rain = 0
KHO1 250233Z 30001KT 28/M03 A2994 RMK A01 T02811033  RH  013%=      5-min Rain = 0
KHO1 250234Z 30001KT 28/M03 A2994 RMK A01 T02811033  RH  013%=      5-min Rain = 0
KHO1 250235Z 30001KT 28/M04 A2994 RMK A01 T02811035  RH  012%=      5-min Rain = 0
KHO1 250236Z 30001KT 28/M04 A2994 RMK A01 T02801036  RH  012%=      5-min Rain = 0
KHO1 250237Z 30002KT 28/M04 A2994 RMK A01 T02801035  RH  013%=      5-min Rain = 0
KHO1 250238Z 30001KT 28/M03 A2994 RMK A01 T02791032  RH  013%=      5-min Rain = 0
KHO1 250239Z 09002KT 28/M03 A2994 RMK A01 T02801030  RH  013%=      5-min Rain = 0
KHO1 250240Z 08005KT 28/M02 A2994 RMK A01 T02791021  RH  014%=      5-min Rain = 0
KHO1 250241Z 08008KT 28/03 A2995 RMK A01 T02780028  RH  020%=      5-min Rain = 0
KHO1 250242Z 10013G18KT 28/05 A2995 RMK A01 T02760052  RH  024%=      5-min Rain = 0
KHO1 250243Z 10014KT 27/09 A2995 RMK A01 T02730090  RH  032%=      5-min Rain = 0
KHO1 250244Z 10012KT 27/10 A2995 RMK A01 T02720100  RH  034%=      5-min Rain = 0
KHO1 250245Z 10011KT 27/10 A2995 RMK A01 T02710099  RH  034%=      5-min Rain = 0
KHO1 250246Z 10008KT 27/10 A2995 RMK A01 T02700097  RH  034%=      5-min Rain = 0
KHO1 250247Z 10009KT 27/10 A2995 RMK A01 T02680096  RH  034%=      5-min Rain = 0
KHO1 250248Z 10006KT 27/10 A2995 RMK A01 T02670098  RH  034%=      5-min Rain = 0
KHO1 250249Z 09004KT 27/10 A2995 RMK A01 T02660095  RH  034%=      5-min Rain = 0
KHO1 250250Z 10009KT 27/11 A2995 RMK A01 T02650109  RH  038%=      5-min Rain = 0
KHO1 250251Z 10011KT 27/12 A2995 RMK A01 T02650120  RH  041%=      5-min Rain = 0
KHO1 250252Z 10012KT 27/13 A2995 RMK A01 T02650126  RH  042%=      5-min Rain = 0
KHO1 250253Z 10011KT 26/13 A2995 RMK A01 T02640128  RH  043%=      5-min Rain = 0
KHO1 250254Z 11014KT 26/13 A2995 RMK A01 T02640134  RH  044%=      5-min Rain = 0
KHO1 250255Z 11012KT 27/14 A2995 RMK A01 T02650136  RH  045%=      5-min Rain = 0
KHO1 250256Z 11012KT 26/14 A2995 RMK A01 T02640137  RH  045%=      5-min Rain = 0
KHO1 250257Z 11013KT 26/14 A2995 RMK A01 T02640138  RH  046%=      5-min Rain = 0
KHO1 250258Z 11014KT 26/14 A2995 RMK A01 T02640140  RH  047%=      5-min Rain = 0
KHO1 250259Z 11013KT 26/14 A2995 RMK A01 T02630141  RH  047%=      5-min Rain = 0
KHO1 250300Z 11014KT 26/14 A2995 RMK A01 T02630142  RH  047%=      5-min Rain = 0
KHO1 250301Z 11014KT 26/14 A2996 RMK A01 T02630143  RH  047%=      5-min Rain = 0
KHO1 250302Z 11012KT 26/14 A2995 RMK A01 T02630143  RH  048%=      5-min Rain = 0
KHO1 250303Z 11010KT 26/14 A2996 RMK A01 T02630143  RH  048%=      5-min Rain = 0
KHO1 250304Z 11014KT 26/14 A2996 RMK A01 T02620144  RH  048%=      5-min Rain = 0
KHO1 250305Z 11014KT 26/14 A2996 RMK A01 T02620144  RH  048%=      5-min Rain = 0
KHO1 250306Z 11013KT 26/14 A2996 RMK A01 T02620143  RH  048%=      5-min Rain = 0
KHO1 250307Z 11013KT 26/14 A2996 RMK A01 T02610142  RH  048%=      5-min Rain = 0
KHO1 250308Z 11013KT 26/14 A2996 RMK A01 T02610141  RH  048%=      5-min Rain = 0
KHO1 250309Z 11014KT 26/14 A2996 RMK A01 T02610141  RH  047%=      5-min Rain = 0
KHO1 250310Z 11013KT 26/14 A2996 RMK A01 T02610140  RH  047%=      5-min Rain = 0
KHO1 250311Z 11015KT 26/14 A2996 RMK A01 T02600138  RH  047%=      5-min Rain = 0
KHO1 250312Z 11013KT 26/14 A2996 RMK A01 T02600136  RH  046%=      5-min Rain = 0
KHO1 250313Z 11013KT 26/14 A2996 RMK A01 T02600135  RH  046%=      5-min Rain = 0
KHO1 250314Z 11011KT 26/13 A2996 RMK A01 T02590133  RH  045%=      5-min Rain = 0
KHO1 250315Z 11013KT 26/13 A2996 RMK A01 T02590130  RH  045%=      5-min Rain = 0
KHO1 250316Z 12013KT 26/13 A2996 RMK A01 T02580128  RH  044%=      5-min Rain = 0
KHO1 250317Z 11013KT 26/13 A2997 RMK A01 T02580125  RH  043%=      5-min Rain = 0
KHO1 250318Z 11011KT 26/12 A2997 RMK A01 T02580122  RH  043%=      5-min Rain = 0
KHO1 250319Z 11011KT 26/12 A2997 RMK A01 T02580122  RH  043%=      5-min Rain = 0
KHO1 250320Z 11012KT 26/12 A2997 RMK A01 T02580121  RH  042%=      5-min Rain = 0
KHO1 250321Z 12012KT 26/12 A2997 RMK A01 T02580120  RH  042%=      5-min Rain = 0
KHO1 250322Z 11012KT 26/12 A2997 RMK A01 T02570118  RH  042%=      5-min Rain = 0
KHO1 250323Z 11011KT 26/12 A2997 RMK A01 T02570117  RH  042%=      5-min Rain = 0
KHO1 250324Z 11011KT 26/12 A2997 RMK A01 T02570116  RH  041%=      5-min Rain = 0
KHO1 250325Z 11011KT 26/12 A2997 RMK A01 T02560115  RH  041%=      5-min Rain = 0
KHO1 250326Z 11013KT 26/11 A2997 RMK A01 T02550113  RH  041%=      5-min Rain = 0
KHO1 250327Z 12013G18KT 26/11 A2997 RMK A01 T02550112  RH  041%=      5-min Rain = 0
KHO1 250328Z 12013KT 26/11 A2997 RMK A01 T02550111  RH  040%=      5-min Rain = 0
KHO1 250329Z 11012KT 26/11 A2997 RMK A01 T02560110  RH  040%=      5-min Rain = 0
KHO1 250330Z 11014KT 26/11 A2997 RMK A01 T02550109  RH  040%=      5-min Rain = 0
KHO1 250331Z 11012KT 25/11 A2997 RMK A01 T02540108  RH  040%=      5-min Rain = 0
KHO1 250332Z 11012KT 25/11 A2997 RMK A01 T02540108  RH  040%=      5-min Rain = 0
KHO1 250333Z 11013KT 25/11 A2997 RMK A01 T02540108  RH  040%=      5-min Rain = 0
KHO1 250334Z 11013KT 25/11 A2997 RMK A01 T02530108  RH  040%=      5-min Rain = 0
KHO1 250335Z 12011KT 25/11 A2997 RMK A01 T02530108  RH  040%=      5-min Rain = 0
KHO1 250336Z 11014KT 25/11 A2997 RMK A01 T02530108  RH  040%=      5-min Rain = 0
KHO1 250337Z 12013KT 25/11 A2997 RMK A01 T02530108  RH  040%=      5-min Rain = 0
KHO1 250338Z 11012G17KT 25/11 A2997 RMK A01 T02530108  RH  040%=      5-min Rain = 0
KHO1 250339Z 12013KT 25/11 A2997 RMK A01 T02530109  RH  040%=      5-min Rain = 0
KHO1 250340Z 11011KT 25/11 A2997 RMK A01 T02530109  RH  040%=      5-min Rain = 0
KHO1 250341Z 12012KT 25/11 A2998 RMK A01 T02520109  RH  041%=      5-min Rain = 0
KHO1 250342Z 11013KT 25/11 A2997 RMK A01 T02520110  RH  041%=      5-min Rain = 0
KHO1 250343Z 12010KT 25/11 A2998 RMK A01 T02520110  RH  041%=      5-min Rain = 0
KHO1 250344Z 12012KT 25/11 A2998 RMK A01 T02510111  RH  041%=      5-min Rain = 0
KHO1 250345Z 11010KT 25/11 A2998 RMK A01 T02510111  RH  041%=      5-min Rain = 0
KHO1 250346Z 11014KT 25/11 A2998 RMK A01 T02500114  RH  042%=      5-min Rain = 0
KHO1 250347Z 11012KT 25/11 A2998 RMK A01 T02500114  RH  042%=      5-min Rain = 0
KHO1 250348Z 11011KT 25/11 A2998 RMK A01 T02500114  RH  043%=      5-min Rain = 0
KHO1 250349Z 11011KT 25/12 A2998 RMK A01 T02490115  RH  043%=      5-min Rain = 0
KHO1 250350Z 11013KT 25/12 A2998 RMK A01 T02480118  RH  044%=      5-min Rain = 0
KHO1 250351Z 11011KT 25/12 A2998 RMK A01 T02480118  RH  044%=      5-min Rain = 0
KHO1 250352Z 11011KT 25/12 A2998 RMK A01 T02470120  RH  045%=      5-min Rain = 0
KHO1 250353Z 11012KT 25/13 A2998 RMK A01 T02470125  RH  046%=      5-min Rain = 0
KHO1 250354Z 11011KT 25/13 A2998 RMK A01 T02460127  RH  047%=      5-min Rain = 0
KHO1 250355Z 12013KT 25/13 A2998 RMK A01 T02460129  RH  048%=      5-min Rain = 0
KHO1 250356Z 11012KT 25/13 A2998 RMK A01 T02460130  RH  048%=      5-min Rain = 0
KHO1 250357Z 11015KT 25/13 A2998 RMK A01 T02460132  RH  049%=      5-min Rain = 0
KHO1 250358Z 11014KT 25/14 A2998 RMK A01 T02460135  RH  050%=      5-min Rain = 0
KHO1 250359Z 11015KT 25/13 A2998 RMK A01 T02450134  RH  050%=      5-min Rain = 0
KHO1 250400Z 11013G19KT 25/14 A2998 RMK A01 T02450135  RH  050%=      5-min Rain = 0
KHO1 250401Z 11015KT 25/14 A2999 RMK A01 T02450137  RH  051%=      5-min Rain = 0
KHO1 250402Z 11014KT 25/14 A2999 RMK A01 T02450140  RH  052%=      5-min Rain = 0
KHO1 250403Z 12014KT 24/14 A2999 RMK A01 T02440142  RH  053%=      5-min Rain = 0
KHO1 250404Z 12013KT 24/14 A2999 RMK A01 T02440144  RH  053%=      5-min Rain = 0
KHO1 250405Z 11015KT 24/15 A2999 RMK A01 T02440145  RH  054%=      5-min Rain = 0
KHO1 250406Z 11013G19KT 24/15 A2999 RMK A01 T02440147  RH  055%=      5-min Rain = 0
KHO1 250407Z 11015KT 24/15 A2999 RMK A01 T02430148  RH  055%=      5-min Rain = 0
KHO1 250408Z 11013KT 24/15 A2999 RMK A01 T02430149  RH  056%=      5-min Rain = 0
KHO1 250409Z 11015G23KT 24/15 A2999 RMK A01 T02430151  RH  056%=      5-min Rain = 0
KHO1 250410Z 12015KT 24/15 A2999 RMK A01 T02430154  RH  058%=      5-min Rain = 0
KHO1 250411Z 12014KT 24/15 A2999 RMK A01 T02430154  RH  058%=      5-min Rain = 0
KHO1 250412Z 12014KT 24/16 A2999 RMK A01 T02430157  RH  059%=      5-min Rain = 0
KHO1 250413Z 11012KT 24/16 A2999 RMK A01 T02430156  RH  059%=      5-min Rain = 0
KHO1 250414Z 12014KT 24/16 A2999 RMK A01 T02420158  RH  059%=      5-min Rain = 0
KHO1 250415Z 12015G21KT 24/16 A2999 RMK A01 T02420161  RH  060%=      5-min Rain = 0
KHO1 250416Z 11013KT 24/16 A2999 RMK A01 T02420162  RH  061%=      5-min Rain = 0
KHO1 250417Z 12014KT 24/16 A2999 RMK A01 T02420164  RH  062%=      5-min Rain = 0
KHO1 250418Z 11015KT 24/17 A30 RMK A01 T02420165  RH  062%=      5-min Rain = 0
KHO1 250419Z 11015KT 24/17 A2999 RMK A01 T02420166  RH  062%=      5-min Rain = 0
KHO1 250420Z 12013KT 24/17 A30 RMK A01 T02420166  RH  063%=      5-min Rain = 0
KHO1 250421Z 12016G21KT 24/17 A30 RMK A01 T02420168  RH  064%=      5-min Rain = 0
KHO1 250422Z 11019G25KT 24/17 A30 RMK A01 T02420171  RH  064%=      5-min Rain = 0
KHO1 250423Z 12015G22KT 24/17 A30 RMK A01 T02420171  RH  065%=      5-min Rain = 0
KHO1 250424Z 11013KT 24/17 A30 RMK A01 T02420171  RH  064%=      5-min Rain = 0
KHO1 250425Z 11011KT 24/17 A30 RMK A01 T02410170  RH  064%=      5-min Rain = 0
KHO1 250426Z 11014KT 24/17 A30 RMK A01 T02410171  RH  065%=      5-min Rain = 0
KHO1 250427Z 12017G22KT 24/17 A30 RMK A01 T02410172  RH  065%=      5-min Rain = 0
KHO1 250428Z 11015G24KT 24/17 A30 RMK A01 T02410173  RH  066%=      5-min Rain = 0
KHO1 250429Z 12022KT 24/17 A30 RMK A01 T02410173  RH  066%=      5-min Rain = 0
KHO1 250430Z 12019KT 24/17 A30 RMK A01 T02410174  RH  066%=      5-min Rain = 0
KHO1 250431Z 12017KT 24/17 A30 RMK A01 T02410174  RH  066%=      5-min Rain = 0
KHO1 250432Z 12018KT 24/17 A30 RMK A01 T02410174  RH  066%=      5-min Rain = 0
KHO1 250433Z 12019G24KT 24/17 A30 RMK A01 T02410174  RH  066%=      5-min Rain = 0
KHO1 250434Z 13016G21KT 24/17 A3001 RMK A01 T02410174  RH  066%=      5-min Rain = 0
KHO1 250435Z 12015G20KT 24/17 A3001 RMK A01 T02400174  RH  067%=      5-min Rain = 0
KHO1 250436Z 13016KT 24/18 A3001 RMK A01 T02400175  RH  067%=      5-min Rain = 0
KHO1 250437Z 12019G25KT 24/18 A3001 RMK A01 T02400175  RH  067%=      5-min Rain = 0
KHO1 250438Z 12017G23KT 24/18 A3001 RMK A01 T02400176  RH  067%=      5-min Rain = 0
KHO1 250439Z 12021G26KT 24/18 A3001 RMK A01 T02390176  RH  068%=      5-min Rain = 0
KHO1 250440Z 12017G23KT 24/18 A3001 RMK A01 T02390176  RH  068%=      5-min Rain = 0
KHO1 250441Z 12020KT 24/18 A3001 RMK A01 T02390176  RH  068%=      5-min Rain = 0
KHO1 250442Z 12021G26KT 24/18 A3001 RMK A01 T02390176  RH  068%=      5-min Rain = 0
KHO1 250443Z 12015G20KT 24/18 A3001 RMK A01 T02380176  RH  068%=      5-min Rain = 0
KHO1 250444Z 12018G24KT 24/18 A3001 RMK A01 T02380175  RH  068%=      5-min Rain = 0
KHO1 250445Z 12020G27KT 24/17 A3001 RMK A01 T02370174  RH  068%=      5-min Rain = 0
KHO1 250446Z 12022KT 24/17 A3001 RMK A01 T02370174  RH  068%=      5-min Rain = 0
KHO1 250447Z 13019G25KT 24/17 A3001 RMK A01 T02370173  RH  068%=      5-min Rain = 0
KHO1 250448Z 13019G26KT 24/17 A3001 RMK A01 T02360173  RH  068%=      5-min Rain = 0
KHO1 250449Z 12019G27KT 24/17 A3001 RMK A01 T02360173  RH  068%=      5-min Rain = 0
KHO1 250450Z 12019G25KT 24/17 A3001 RMK A01 T02350172  RH  067%=      5-min Rain = 0
KHO1 250451Z 12022G27KT 24/17 A3001 RMK A01 T02350171  RH  067%=      5-min Rain = 0
KHO1 250452Z 12021KT 24/17 A3001 RMK A01 T02350171  RH  067%=      5-min Rain = 0
KHO1 250453Z 13020KT 24/17 A3002 RMK A01 T02350170  RH  067%=      5-min Rain = 0
KHO1 250454Z 13018KT 24/17 A3002 RMK A01 T02350170  RH  067%=      5-min Rain = 0
KHO1 250455Z 13016KT 23/17 A3002 RMK A01 T02340169  RH  067%=      5-min Rain = 0
KHO1 250456Z 14018G23KT 23/17 A3002 RMK A01 T02340169  RH  067%=      5-min Rain = 0
KHO1 250457Z 14013G18KT 23/17 A3002 RMK A01 T02340168  RH  067%=      5-min Rain = 0
KHO1 250458Z 13013KT 23/17 A3002 RMK A01 T02330168  RH  067%=      5-min Rain = 0
KHO1 250459Z 13013KT 23/17 A3002 RMK A01 T02330167  RH  067%=      5-min Rain = 0

Page generated in 0.0859 seconds.